<?xml version="1.0" encoding="UTF-8" standalone="no" ?>
<gpx xmlns="http://www.topografix.com/GPX/1/1" xmlns:xsi="http://www.w3.org/2001/XMLSchema-instance" xsi:schemaLocation="http://www.topografix.com/GPX/1/1 http://www.topografix.com/GPX/1/1/gpx.xsd" version="1.1" creator="VisuGPX - https://www.visugpx.com">
  <metadata>
    <name>Jardinage à la Vanade</name>
    <desc><![CDATA[Lunch trail pour tester une idée de Fabrice...]]></desc>
  </metadata>
  <trk>
    <name><![CDATA[Villeneuve Loubet - La Vanade]]></name>
    <desc><![CDATA[Jardinage sur une idée de Fabrice. Ouais, pas top...]]></desc>
    <trkseg>
      <trkpt lat="43.65772" lon="7.11991">
        <ele>17.39999961853</ele>
        <time>2011-04-05T10:04:32.000Z</time>
      </trkpt>
      <trkpt lat="43.65772" lon="7.11993">
        <ele>17.39999961853</ele>
        <time>2011-04-05T10:04:33.000Z</time>
      </trkpt>
      <trkpt lat="43.65769" lon="7.12009">
        <ele>17.60000038147</ele>
        <time>2011-04-05T10:04:38.000Z</time>
      </trkpt>
      <trkpt lat="43.65766" lon="7.12024">
        <ele>17.39999961853</ele>
        <time>2011-04-05T10:04:42.000Z</time>
      </trkpt>
      <trkpt lat="43.65773" lon="7.12029">
        <ele>17</ele>
        <time>2011-04-05T10:04:46.000Z</time>
      </trkpt>
      <trkpt lat="43.65784" lon="7.12028">
        <ele>16.39999961853</ele>
        <time>2011-04-05T10:04:50.000Z</time>
      </trkpt>
      <trkpt lat="43.65798" lon="7.12021">
        <ele>15.60000038147</ele>
        <time>2011-04-05T10:04:55.000Z</time>
      </trkpt>
      <trkpt lat="43.65809" lon="7.12012">
        <ele>15.199999809265</ele>
        <time>2011-04-05T10:05:00.000Z</time>
      </trkpt>
      <trkpt lat="43.65816" lon="7.12006">
        <ele>14.800000190735</ele>
        <time>2011-04-05T10:05:03.000Z</time>
      </trkpt>
      <trkpt lat="43.65829" lon="7.11996">
        <ele>14.199999809265</ele>
        <time>2011-04-05T10:05:09.000Z</time>
      </trkpt>
      <trkpt lat="43.65839" lon="7.11985">
        <ele>13.800000190735</ele>
        <time>2011-04-05T10:05:13.000Z</time>
      </trkpt>
      <trkpt lat="43.65851" lon="7.11971">
        <ele>13.60000038147</ele>
        <time>2011-04-05T10:05:18.000Z</time>
      </trkpt>
      <trkpt lat="43.65866" lon="7.11956">
        <ele>13.39999961853</ele>
        <time>2011-04-05T10:05:24.000Z</time>
      </trkpt>
      <trkpt lat="43.65872" lon="7.11944">
        <ele>13.199999809265</ele>
        <time>2011-04-05T10:05:28.000Z</time>
      </trkpt>
      <trkpt lat="43.65886" lon="7.11926">
        <ele>13</ele>
        <time>2011-04-05T10:05:34.000Z</time>
      </trkpt>
      <trkpt lat="43.65898" lon="7.11912">
        <ele>13</ele>
        <time>2011-04-05T10:05:39.000Z</time>
      </trkpt>
      <trkpt lat="43.65909" lon="7.11896">
        <ele>13</ele>
        <time>2011-04-05T10:05:44.000Z</time>
      </trkpt>
      <trkpt lat="43.65915" lon="7.11881">
        <ele>13</ele>
        <time>2011-04-05T10:05:49.000Z</time>
      </trkpt>
      <trkpt lat="43.65925" lon="7.11864">
        <ele>12.800000190735</ele>
        <time>2011-04-05T10:05:54.000Z</time>
      </trkpt>
      <trkpt lat="43.6593" lon="7.11857">
        <ele>12.60000038147</ele>
        <time>2011-04-05T10:05:57.000Z</time>
      </trkpt>
      <trkpt lat="43.65936" lon="7.11842">
        <ele>12.39999961853</ele>
        <time>2011-04-05T10:06:01.000Z</time>
      </trkpt>
      <trkpt lat="43.65948" lon="7.1182">
        <ele>13.39999961853</ele>
        <time>2011-04-05T10:06:07.000Z</time>
      </trkpt>
      <trkpt lat="43.65959" lon="7.11803">
        <ele>14.800000190735</ele>
        <time>2011-04-05T10:06:12.000Z</time>
      </trkpt>
      <trkpt lat="43.65966" lon="7.11791">
        <ele>15.800000190735</ele>
        <time>2011-04-05T10:06:16.000Z</time>
      </trkpt>
      <trkpt lat="43.65973" lon="7.11765">
        <ele>17.799999237061</ele>
        <time>2011-04-05T10:06:23.000Z</time>
      </trkpt>
      <trkpt lat="43.65984" lon="7.1175">
        <ele>18.60000038147</ele>
        <time>2011-04-05T10:06:27.000Z</time>
      </trkpt>
      <trkpt lat="43.6599" lon="7.11737">
        <ele>20</ele>
        <time>2011-04-05T10:06:31.000Z</time>
      </trkpt>
      <trkpt lat="43.65996" lon="7.1172">
        <ele>21</ele>
        <time>2011-04-05T10:06:36.000Z</time>
      </trkpt>
      <trkpt lat="43.66008" lon="7.11705">
        <ele>21.200000762939</ele>
        <time>2011-04-05T10:06:41.000Z</time>
      </trkpt>
      <trkpt lat="43.66016" lon="7.11693">
        <ele>21.39999961853</ele>
        <time>2011-04-05T10:06:45.000Z</time>
      </trkpt>
      <trkpt lat="43.66022" lon="7.11675">
        <ele>22.200000762939</ele>
        <time>2011-04-05T10:06:50.000Z</time>
      </trkpt>
      <trkpt lat="43.66024" lon="7.11656">
        <ele>24.200000762939</ele>
        <time>2011-04-05T10:06:55.000Z</time>
      </trkpt>
      <trkpt lat="43.6603" lon="7.11637">
        <ele>25.799999237061</ele>
        <time>2011-04-05T10:07:00.000Z</time>
      </trkpt>
      <trkpt lat="43.66038" lon="7.1162">
        <ele>26.39999961853</ele>
        <time>2011-04-05T10:07:05.000Z</time>
      </trkpt>
      <trkpt lat="43.66046" lon="7.11596">
        <ele>27.200000762939</ele>
        <time>2011-04-05T10:07:11.000Z</time>
      </trkpt>
      <trkpt lat="43.66053" lon="7.11581">
        <ele>26.60000038147</ele>
        <time>2011-04-05T10:07:15.000Z</time>
      </trkpt>
      <trkpt lat="43.66059" lon="7.11556">
        <ele>27.60000038147</ele>
        <time>2011-04-05T10:07:21.000Z</time>
      </trkpt>
      <trkpt lat="43.66068" lon="7.11535">
        <ele>27</ele>
        <time>2011-04-05T10:07:27.000Z</time>
      </trkpt>
      <trkpt lat="43.66068" lon="7.11519">
        <ele>29</ele>
        <time>2011-04-05T10:07:31.000Z</time>
      </trkpt>
      <trkpt lat="43.66076" lon="7.11497">
        <ele>28.799999237061</ele>
        <time>2011-04-05T10:07:37.000Z</time>
      </trkpt>
      <trkpt lat="43.66085" lon="7.11478">
        <ele>29.200000762939</ele>
        <time>2011-04-05T10:07:42.000Z</time>
      </trkpt>
      <trkpt lat="43.66094" lon="7.11466">
        <ele>29.799999237061</ele>
        <time>2011-04-05T10:07:47.000Z</time>
      </trkpt>
      <trkpt lat="43.66109" lon="7.1145">
        <ele>30.200000762939</ele>
        <time>2011-04-05T10:07:53.000Z</time>
      </trkpt>
      <trkpt lat="43.66124" lon="7.11439">
        <ele>29.60000038147</ele>
        <time>2011-04-05T10:07:58.000Z</time>
      </trkpt>
      <trkpt lat="43.66135" lon="7.11427">
        <ele>29.60000038147</ele>
        <time>2011-04-05T10:08:03.000Z</time>
      </trkpt>
      <trkpt lat="43.6615" lon="7.1141">
        <ele>29.799999237061</ele>
        <time>2011-04-05T10:08:09.000Z</time>
      </trkpt>
      <trkpt lat="43.66169" lon="7.11398">
        <ele>29.799999237061</ele>
        <time>2011-04-05T10:08:15.000Z</time>
      </trkpt>
      <trkpt lat="43.66183" lon="7.11389">
        <ele>30.60000038147</ele>
        <time>2011-04-05T10:08:20.000Z</time>
      </trkpt>
      <trkpt lat="43.662" lon="7.1138">
        <ele>31</ele>
        <time>2011-04-05T10:08:26.000Z</time>
      </trkpt>
      <trkpt lat="43.66215" lon="7.11365">
        <ele>32.200000762939</ele>
        <time>2011-04-05T10:08:32.000Z</time>
      </trkpt>
      <trkpt lat="43.66231" lon="7.11358">
        <ele>31.60000038147</ele>
        <time>2011-04-05T10:08:37.000Z</time>
      </trkpt>
      <trkpt lat="43.66245" lon="7.11354">
        <ele>30.799999237061</ele>
        <time>2011-04-05T10:08:42.000Z</time>
      </trkpt>
      <trkpt lat="43.66262" lon="7.1135">
        <ele>30</ele>
        <time>2011-04-05T10:08:47.000Z</time>
      </trkpt>
      <trkpt lat="43.66278" lon="7.11347">
        <ele>29.39999961853</ele>
        <time>2011-04-05T10:08:52.000Z</time>
      </trkpt>
      <trkpt lat="43.66297" lon="7.11343">
        <ele>28.799999237061</ele>
        <time>2011-04-05T10:08:58.000Z</time>
      </trkpt>
      <trkpt lat="43.66309" lon="7.1134">
        <ele>28.60000038147</ele>
        <time>2011-04-05T10:09:02.000Z</time>
      </trkpt>
      <trkpt lat="43.66324" lon="7.11332">
        <ele>28.60000038147</ele>
        <time>2011-04-05T10:09:07.000Z</time>
      </trkpt>
      <trkpt lat="43.66337" lon="7.11327">
        <ele>28.200000762939</ele>
        <time>2011-04-05T10:09:11.000Z</time>
      </trkpt>
      <trkpt lat="43.6635" lon="7.11322">
        <ele>28.200000762939</ele>
        <time>2011-04-05T10:09:15.000Z</time>
      </trkpt>
      <trkpt lat="43.66362" lon="7.11316">
        <ele>28.39999961853</ele>
        <time>2011-04-05T10:09:19.000Z</time>
      </trkpt>
      <trkpt lat="43.66381" lon="7.11311">
        <ele>28</ele>
        <time>2011-04-05T10:09:26.000Z</time>
      </trkpt>
      <trkpt lat="43.66395" lon="7.11304">
        <ele>28.200000762939</ele>
        <time>2011-04-05T10:09:31.000Z</time>
      </trkpt>
      <trkpt lat="43.66406" lon="7.11286">
        <ele>29.39999961853</ele>
        <time>2011-04-05T10:09:37.000Z</time>
      </trkpt>
      <trkpt lat="43.66424" lon="7.11279">
        <ele>29.39999961853</ele>
        <time>2011-04-05T10:09:43.000Z</time>
      </trkpt>
      <trkpt lat="43.66435" lon="7.11272">
        <ele>29.60000038147</ele>
        <time>2011-04-05T10:09:47.000Z</time>
      </trkpt>
      <trkpt lat="43.66447" lon="7.11256">
        <ele>30.60000038147</ele>
        <time>2011-04-05T10:09:52.000Z</time>
      </trkpt>
      <trkpt lat="43.6646" lon="7.11238">
        <ele>31.60000038147</ele>
        <time>2011-04-05T10:09:58.000Z</time>
      </trkpt>
      <trkpt lat="43.66473" lon="7.11224">
        <ele>32</ele>
        <time>2011-04-05T10:10:03.000Z</time>
      </trkpt>
      <trkpt lat="43.66485" lon="7.1121">
        <ele>32.599998474121</ele>
        <time>2011-04-05T10:10:08.000Z</time>
      </trkpt>
      <trkpt lat="43.66496" lon="7.11197">
        <ele>33.200000762939</ele>
        <time>2011-04-05T10:10:12.000Z</time>
      </trkpt>
      <trkpt lat="43.6651" lon="7.11194">
        <ele>32.400001525879</ele>
        <time>2011-04-05T10:10:17.000Z</time>
      </trkpt>
      <trkpt lat="43.66528" lon="7.11186">
        <ele>31.200000762939</ele>
        <time>2011-04-05T10:10:23.000Z</time>
      </trkpt>
      <trkpt lat="43.6654" lon="7.11177">
        <ele>30.60000038147</ele>
        <time>2011-04-05T10:10:27.000Z</time>
      </trkpt>
      <trkpt lat="43.66554" lon="7.11169">
        <ele>29.60000038147</ele>
        <time>2011-04-05T10:10:32.000Z</time>
      </trkpt>
      <trkpt lat="43.66578" lon="7.11171">
        <ele>27.200000762939</ele>
        <time>2011-04-05T10:10:39.000Z</time>
      </trkpt>
      <trkpt lat="43.66597" lon="7.11172">
        <ele>25.799999237061</ele>
        <time>2011-04-05T10:10:45.000Z</time>
      </trkpt>
      <trkpt lat="43.6661" lon="7.11166">
        <ele>25</ele>
        <time>2011-04-05T10:10:49.000Z</time>
      </trkpt>
      <trkpt lat="43.66631" lon="7.1115">
        <ele>25</ele>
        <time>2011-04-05T10:10:56.000Z</time>
      </trkpt>
      <trkpt lat="43.6665" lon="7.11141">
        <ele>24.39999961853</ele>
        <time>2011-04-05T10:11:02.000Z</time>
      </trkpt>
      <trkpt lat="43.66674" lon="7.11129">
        <ele>23.799999237061</ele>
        <time>2011-04-05T10:11:10.000Z</time>
      </trkpt>
      <trkpt lat="43.66691" lon="7.1112">
        <ele>23.60000038147</ele>
        <time>2011-04-05T10:11:16.000Z</time>
      </trkpt>
      <trkpt lat="43.66701" lon="7.11109">
        <ele>23.799999237061</ele>
        <time>2011-04-05T10:11:20.000Z</time>
      </trkpt>
      <trkpt lat="43.66712" lon="7.11096">
        <ele>23.60000038147</ele>
        <time>2011-04-05T10:11:25.000Z</time>
      </trkpt>
      <trkpt lat="43.66723" lon="7.11082">
        <ele>23.39999961853</ele>
        <time>2011-04-05T10:11:30.000Z</time>
      </trkpt>
      <trkpt lat="43.66737" lon="7.11067">
        <ele>24.200000762939</ele>
        <time>2011-04-05T10:11:35.000Z</time>
      </trkpt>
      <trkpt lat="43.66747" lon="7.11052">
        <ele>25</ele>
        <time>2011-04-05T10:11:40.000Z</time>
      </trkpt>
      <trkpt lat="43.66762" lon="7.11037">
        <ele>25.799999237061</ele>
        <time>2011-04-05T10:11:45.000Z</time>
      </trkpt>
      <trkpt lat="43.66772" lon="7.11019">
        <ele>26.799999237061</ele>
        <time>2011-04-05T10:11:50.000Z</time>
      </trkpt>
      <trkpt lat="43.66782" lon="7.11004">
        <ele>27.200000762939</ele>
        <time>2011-04-05T10:11:55.000Z</time>
      </trkpt>
      <trkpt lat="43.66791" lon="7.10986">
        <ele>27.799999237061</ele>
        <time>2011-04-05T10:12:00.000Z</time>
      </trkpt>
      <trkpt lat="43.66799" lon="7.10973">
        <ele>27.39999961853</ele>
        <time>2011-04-05T10:12:04.000Z</time>
      </trkpt>
      <trkpt lat="43.66808" lon="7.1096">
        <ele>26.799999237061</ele>
        <time>2011-04-05T10:12:08.000Z</time>
      </trkpt>
      <trkpt lat="43.6681" lon="7.10945">
        <ele>27</ele>
        <time>2011-04-05T10:12:12.000Z</time>
      </trkpt>
      <trkpt lat="43.66812" lon="7.10931">
        <ele>27.200000762939</ele>
        <time>2011-04-05T10:12:16.000Z</time>
      </trkpt>
      <trkpt lat="43.66814" lon="7.10909">
        <ele>27.39999961853</ele>
        <time>2011-04-05T10:12:21.000Z</time>
      </trkpt>
      <trkpt lat="43.66822" lon="7.10883">
        <ele>25</ele>
        <time>2011-04-05T10:12:27.000Z</time>
      </trkpt>
      <trkpt lat="43.66829" lon="7.10864">
        <ele>22.799999237061</ele>
        <time>2011-04-05T10:12:32.000Z</time>
      </trkpt>
      <trkpt lat="43.66835" lon="7.10843">
        <ele>21</ele>
        <time>2011-04-05T10:12:37.000Z</time>
      </trkpt>
      <trkpt lat="43.66839" lon="7.10822">
        <ele>20.60000038147</ele>
        <time>2011-04-05T10:12:42.000Z</time>
      </trkpt>
      <trkpt lat="43.66841" lon="7.10801">
        <ele>20.39999961853</ele>
        <time>2011-04-05T10:12:47.000Z</time>
      </trkpt>
      <trkpt lat="43.66847" lon="7.10776">
        <ele>20</ele>
        <time>2011-04-05T10:12:53.000Z</time>
      </trkpt>
      <trkpt lat="43.66851" lon="7.10753">
        <ele>19.799999237061</ele>
        <time>2011-04-05T10:12:58.000Z</time>
      </trkpt>
      <trkpt lat="43.66858" lon="7.10731">
        <ele>19.60000038147</ele>
        <time>2011-04-05T10:13:03.000Z</time>
      </trkpt>
      <trkpt lat="43.66867" lon="7.10706">
        <ele>19.60000038147</ele>
        <time>2011-04-05T10:13:09.000Z</time>
      </trkpt>
      <trkpt lat="43.66873" lon="7.10684">
        <ele>19.60000038147</ele>
        <time>2011-04-05T10:13:14.000Z</time>
      </trkpt>
      <trkpt lat="43.6688" lon="7.10659">
        <ele>20.200000762939</ele>
        <time>2011-04-05T10:13:20.000Z</time>
      </trkpt>
      <trkpt lat="43.66886" lon="7.10634">
        <ele>21.200000762939</ele>
        <time>2011-04-05T10:13:26.000Z</time>
      </trkpt>
      <trkpt lat="43.66889" lon="7.10612">
        <ele>22.200000762939</ele>
        <time>2011-04-05T10:13:31.000Z</time>
      </trkpt>
      <trkpt lat="43.66894" lon="7.10591">
        <ele>23</ele>
        <time>2011-04-05T10:13:36.000Z</time>
      </trkpt>
      <trkpt lat="43.66903" lon="7.10568">
        <ele>22.799999237061</ele>
        <time>2011-04-05T10:13:42.000Z</time>
      </trkpt>
      <trkpt lat="43.66909" lon="7.10552">
        <ele>22.39999961853</ele>
        <time>2011-04-05T10:13:46.000Z</time>
      </trkpt>
      <trkpt lat="43.66915" lon="7.10532">
        <ele>22</ele>
        <time>2011-04-05T10:13:51.000Z</time>
      </trkpt>
      <trkpt lat="43.66929" lon="7.10504">
        <ele>21.799999237061</ele>
        <time>2011-04-05T10:13:59.000Z</time>
      </trkpt>
      <trkpt lat="43.66936" lon="7.10482">
        <ele>23</ele>
        <time>2011-04-05T10:14:05.000Z</time>
      </trkpt>
      <trkpt lat="43.66939" lon="7.10466">
        <ele>24</ele>
        <time>2011-04-05T10:14:09.000Z</time>
      </trkpt>
      <trkpt lat="43.66937" lon="7.10442">
        <ele>25.39999961853</ele>
        <time>2011-04-05T10:14:15.000Z</time>
      </trkpt>
      <trkpt lat="43.66927" lon="7.10434">
        <ele>25.799999237061</ele>
        <time>2011-04-05T10:14:19.000Z</time>
      </trkpt>
      <trkpt lat="43.66912" lon="7.10429">
        <ele>26.39999961853</ele>
        <time>2011-04-05T10:14:24.000Z</time>
      </trkpt>
      <trkpt lat="43.66894" lon="7.10418">
        <ele>27.39999961853</ele>
        <time>2011-04-05T10:14:30.000Z</time>
      </trkpt>
      <trkpt lat="43.66879" lon="7.10407">
        <ele>28.60000038147</ele>
        <time>2011-04-05T10:14:36.000Z</time>
      </trkpt>
      <trkpt lat="43.66864" lon="7.10408">
        <ele>28.799999237061</ele>
        <time>2011-04-05T10:14:41.000Z</time>
      </trkpt>
      <trkpt lat="43.66853" lon="7.10413">
        <ele>28.60000038147</ele>
        <time>2011-04-05T10:14:46.000Z</time>
      </trkpt>
      <trkpt lat="43.66842" lon="7.10417">
        <ele>28.60000038147</ele>
        <time>2011-04-05T10:14:51.000Z</time>
      </trkpt>
      <trkpt lat="43.6683" lon="7.10421">
        <ele>29.799999237061</ele>
        <time>2011-04-05T10:14:56.000Z</time>
      </trkpt>
      <trkpt lat="43.66825" lon="7.10423">
        <ele>31.39999961853</ele>
        <time>2011-04-05T10:14:58.000Z</time>
      </trkpt>
      <trkpt lat="43.66821" lon="7.10415">
        <ele>32.599998474121</ele>
        <time>2011-04-05T10:15:03.000Z</time>
      </trkpt>
      <trkpt lat="43.66819" lon="7.10402">
        <ele>33.400001525879</ele>
        <time>2011-04-05T10:15:07.000Z</time>
      </trkpt>
      <trkpt lat="43.66818" lon="7.10399">
        <ele>33.799999237061</ele>
        <time>2011-04-05T10:15:08.000Z</time>
      </trkpt>
      <trkpt lat="43.66811" lon="7.10384">
        <ele>35.599998474121</ele>
        <time>2011-04-05T10:15:14.000Z</time>
      </trkpt>
      <trkpt lat="43.66805" lon="7.10367">
        <ele>37</ele>
        <time>2011-04-05T10:15:21.000Z</time>
      </trkpt>
      <trkpt lat="43.66804" lon="7.10365">
        <ele>37.200000762939</ele>
        <time>2011-04-05T10:15:22.000Z</time>
      </trkpt>
      <trkpt lat="43.66804" lon="7.1036">
        <ele>37.200000762939</ele>
        <time>2011-04-05T10:15:24.000Z</time>
      </trkpt>
      <trkpt lat="43.66804" lon="7.1034">
        <ele>37.200000762939</ele>
        <time>2011-04-05T10:15:30.000Z</time>
      </trkpt>
      <trkpt lat="43.66797" lon="7.10333">
        <ele>38.200000762939</ele>
        <time>2011-04-05T10:15:34.000Z</time>
      </trkpt>
      <trkpt lat="43.66795" lon="7.10331">
        <ele>38.599998474121</ele>
        <time>2011-04-05T10:15:35.000Z</time>
      </trkpt>
      <trkpt lat="43.66789" lon="7.1032">
        <ele>40</ele>
        <time>2011-04-05T10:15:40.000Z</time>
      </trkpt>
      <trkpt lat="43.66787" lon="7.10317">
        <ele>40.200000762939</ele>
        <time>2011-04-05T10:15:41.000Z</time>
      </trkpt>
      <trkpt lat="43.66779" lon="7.10308">
        <ele>41.599998474121</ele>
        <time>2011-04-05T10:15:46.000Z</time>
      </trkpt>
      <trkpt lat="43.6677" lon="7.10301">
        <ele>42.400001525879</ele>
        <time>2011-04-05T10:15:50.000Z</time>
      </trkpt>
      <trkpt lat="43.66765" lon="7.10293">
        <ele>43</ele>
        <time>2011-04-05T10:15:53.000Z</time>
      </trkpt>
      <trkpt lat="43.66754" lon="7.10284">
        <ele>43.400001525879</ele>
        <time>2011-04-05T10:15:58.000Z</time>
      </trkpt>
      <trkpt lat="43.66748" lon="7.10272">
        <ele>43.799999237061</ele>
        <time>2011-04-05T10:16:03.000Z</time>
      </trkpt>
      <trkpt lat="43.66739" lon="7.10258">
        <ele>45</ele>
        <time>2011-04-05T10:16:09.000Z</time>
      </trkpt>
      <trkpt lat="43.66737" lon="7.10245">
        <ele>45.400001525879</ele>
        <time>2011-04-05T10:16:13.000Z</time>
      </trkpt>
      <trkpt lat="43.66736" lon="7.10242">
        <ele>45.799999237061</ele>
        <time>2011-04-05T10:16:14.000Z</time>
      </trkpt>
      <trkpt lat="43.66729" lon="7.10232">
        <ele>47.599998474121</ele>
        <time>2011-04-05T10:16:19.000Z</time>
      </trkpt>
      <trkpt lat="43.66726" lon="7.10229">
        <ele>48.400001525879</ele>
        <time>2011-04-05T10:16:21.000Z</time>
      </trkpt>
      <trkpt lat="43.66723" lon="7.10217">
        <ele>49.799999237061</ele>
        <time>2011-04-05T10:16:26.000Z</time>
      </trkpt>
      <trkpt lat="43.66714" lon="7.10205">
        <ele>51.400001525879</ele>
        <time>2011-04-05T10:16:32.000Z</time>
      </trkpt>
      <trkpt lat="43.6671" lon="7.10198">
        <ele>52.400001525879</ele>
        <time>2011-04-05T10:16:35.000Z</time>
      </trkpt>
      <trkpt lat="43.66701" lon="7.1019">
        <ele>53.599998474121</ele>
        <time>2011-04-05T10:16:40.000Z</time>
      </trkpt>
      <trkpt lat="43.66695" lon="7.10182">
        <ele>54.599998474121</ele>
        <time>2011-04-05T10:16:44.000Z</time>
      </trkpt>
      <trkpt lat="43.6668" lon="7.10164">
        <ele>56.400001525879</ele>
        <time>2011-04-05T10:16:52.000Z</time>
      </trkpt>
      <trkpt lat="43.66675" lon="7.10149">
        <ele>57.599998474121</ele>
        <time>2011-04-05T10:16:57.000Z</time>
      </trkpt>
      <trkpt lat="43.6667" lon="7.10137">
        <ele>58.599998474121</ele>
        <time>2011-04-05T10:17:02.000Z</time>
      </trkpt>
      <trkpt lat="43.66662" lon="7.10128">
        <ele>59.799999237061</ele>
        <time>2011-04-05T10:17:07.000Z</time>
      </trkpt>
      <trkpt lat="43.66659" lon="7.10127">
        <ele>60.400001525879</ele>
        <time>2011-04-05T10:17:09.000Z</time>
      </trkpt>
      <trkpt lat="43.66649" lon="7.10122">
        <ele>61.799999237061</ele>
        <time>2011-04-05T10:17:15.000Z</time>
      </trkpt>
      <trkpt lat="43.66643" lon="7.10121">
        <ele>62.599998474121</ele>
        <time>2011-04-05T10:17:18.000Z</time>
      </trkpt>
      <trkpt lat="43.66643" lon="7.10107">
        <ele>63</ele>
        <time>2011-04-05T10:17:24.000Z</time>
      </trkpt>
      <trkpt lat="43.66645" lon="7.10102">
        <ele>63</ele>
        <time>2011-04-05T10:17:26.000Z</time>
      </trkpt>
      <trkpt lat="43.66646" lon="7.10097">
        <ele>63.200000762939</ele>
        <time>2011-04-05T10:17:28.000Z</time>
      </trkpt>
      <trkpt lat="43.66641" lon="7.10078">
        <ele>64.599998474121</ele>
        <time>2011-04-05T10:17:35.000Z</time>
      </trkpt>
      <trkpt lat="43.66644" lon="7.10072">
        <ele>65</ele>
        <time>2011-04-05T10:17:38.000Z</time>
      </trkpt>
      <trkpt lat="43.66651" lon="7.10056">
        <ele>66.400001525879</ele>
        <time>2011-04-05T10:17:45.000Z</time>
      </trkpt>
      <trkpt lat="43.66651" lon="7.10045">
        <ele>67.800003051758</ele>
        <time>2011-04-05T10:17:50.000Z</time>
      </trkpt>
      <trkpt lat="43.66643" lon="7.10039">
        <ele>68.599998474121</ele>
        <time>2011-04-05T10:17:55.000Z</time>
      </trkpt>
      <trkpt lat="43.66643" lon="7.10028">
        <ele>69.800003051758</ele>
        <time>2011-04-05T10:17:59.000Z</time>
      </trkpt>
      <trkpt lat="43.66645" lon="7.10016">
        <ele>71</ele>
        <time>2011-04-05T10:18:03.000Z</time>
      </trkpt>
      <trkpt lat="43.66648" lon="7.1">
        <ele>72.800003051758</ele>
        <time>2011-04-05T10:18:09.000Z</time>
      </trkpt>
      <trkpt lat="43.66648" lon="7.09998">
        <ele>73.199996948242</ele>
        <time>2011-04-05T10:18:10.000Z</time>
      </trkpt>
      <trkpt lat="43.66648" lon="7.09981">
        <ele>74.800003051758</ele>
        <time>2011-04-05T10:18:16.000Z</time>
      </trkpt>
      <trkpt lat="43.66646" lon="7.09975">
        <ele>75.199996948242</ele>
        <time>2011-04-05T10:18:18.000Z</time>
      </trkpt>
      <trkpt lat="43.66645" lon="7.09955">
        <ele>77.199996948242</ele>
        <time>2011-04-05T10:18:24.000Z</time>
      </trkpt>
      <trkpt lat="43.66645" lon="7.09936">
        <ele>79</ele>
        <time>2011-04-05T10:18:30.000Z</time>
      </trkpt>
      <trkpt lat="43.66652" lon="7.09918">
        <ele>81.199996948242</ele>
        <time>2011-04-05T10:18:36.000Z</time>
      </trkpt>
      <trkpt lat="43.66658" lon="7.09899">
        <ele>82.400001525879</ele>
        <time>2011-04-05T10:18:42.000Z</time>
      </trkpt>
      <trkpt lat="43.6666" lon="7.09883">
        <ele>83.199996948242</ele>
        <time>2011-04-05T10:18:47.000Z</time>
      </trkpt>
      <trkpt lat="43.66659" lon="7.0987">
        <ele>83.800003051758</ele>
        <time>2011-04-05T10:18:51.000Z</time>
      </trkpt>
      <trkpt lat="43.66663" lon="7.09854">
        <ele>84.800003051758</ele>
        <time>2011-04-05T10:18:56.000Z</time>
      </trkpt>
      <trkpt lat="43.66676" lon="7.09834">
        <ele>85.599998474121</ele>
        <time>2011-04-05T10:19:03.000Z</time>
      </trkpt>
      <trkpt lat="43.66681" lon="7.09819">
        <ele>85.800003051758</ele>
        <time>2011-04-05T10:19:08.000Z</time>
      </trkpt>
      <trkpt lat="43.66687" lon="7.09805">
        <ele>86</ele>
        <time>2011-04-05T10:19:12.000Z</time>
      </trkpt>
      <trkpt lat="43.66686" lon="7.09789">
        <ele>86.400001525879</ele>
        <time>2011-04-05T10:19:17.000Z</time>
      </trkpt>
      <trkpt lat="43.66686" lon="7.09774">
        <ele>86.599998474121</ele>
        <time>2011-04-05T10:19:21.000Z</time>
      </trkpt>
      <trkpt lat="43.66687" lon="7.09757">
        <ele>87</ele>
        <time>2011-04-05T10:19:25.000Z</time>
      </trkpt>
      <trkpt lat="43.667" lon="7.09733">
        <ele>88</ele>
        <time>2011-04-05T10:19:32.000Z</time>
      </trkpt>
      <trkpt lat="43.66709" lon="7.09716">
        <ele>89</ele>
        <time>2011-04-05T10:19:37.000Z</time>
      </trkpt>
      <trkpt lat="43.66713" lon="7.097">
        <ele>90</ele>
        <time>2011-04-05T10:19:42.000Z</time>
      </trkpt>
      <trkpt lat="43.66724" lon="7.09689">
        <ele>91</ele>
        <time>2011-04-05T10:19:47.000Z</time>
      </trkpt>
      <trkpt lat="43.66731" lon="7.09676">
        <ele>92.199996948242</ele>
        <time>2011-04-05T10:19:51.000Z</time>
      </trkpt>
      <trkpt lat="43.66734" lon="7.09658">
        <ele>93.599998474121</ele>
        <time>2011-04-05T10:19:56.000Z</time>
      </trkpt>
      <trkpt lat="43.66739" lon="7.09643">
        <ele>95</ele>
        <time>2011-04-05T10:20:01.000Z</time>
      </trkpt>
      <trkpt lat="43.66741" lon="7.09635">
        <ele>95.599998474121</ele>
        <time>2011-04-05T10:20:04.000Z</time>
      </trkpt>
      <trkpt lat="43.66746" lon="7.09614">
        <ele>97.400001525879</ele>
        <time>2011-04-05T10:20:10.000Z</time>
      </trkpt>
      <trkpt lat="43.66747" lon="7.09611">
        <ele>97.599998474121</ele>
        <time>2011-04-05T10:20:11.000Z</time>
      </trkpt>
      <trkpt lat="43.66749" lon="7.09603">
        <ele>98.400001525879</ele>
        <time>2011-04-05T10:20:14.000Z</time>
      </trkpt>
      <trkpt lat="43.66752" lon="7.0959">
        <ele>99.400001525879</ele>
        <time>2011-04-05T10:20:18.000Z</time>
      </trkpt>
      <trkpt lat="43.66755" lon="7.09576">
        <ele>100</ele>
        <time>2011-04-05T10:20:22.000Z</time>
      </trkpt>
      <trkpt lat="43.66764" lon="7.09557">
        <ele>100.40000152588</ele>
        <time>2011-04-05T10:20:28.000Z</time>
      </trkpt>
      <trkpt lat="43.66765" lon="7.09554">
        <ele>100.40000152588</ele>
        <time>2011-04-05T10:20:29.000Z</time>
      </trkpt>
      <trkpt lat="43.66772" lon="7.09536">
        <ele>100.80000305176</ele>
        <time>2011-04-05T10:20:36.000Z</time>
      </trkpt>
      <trkpt lat="43.66773" lon="7.0953">
        <ele>101</ele>
        <time>2011-04-05T10:20:38.000Z</time>
      </trkpt>
      <trkpt lat="43.66775" lon="7.09509">
        <ele>101.59999847412</ele>
        <time>2011-04-05T10:20:44.000Z</time>
      </trkpt>
      <trkpt lat="43.66785" lon="7.09494">
        <ele>102</ele>
        <time>2011-04-05T10:20:50.000Z</time>
      </trkpt>
      <trkpt lat="43.66787" lon="7.09491">
        <ele>102</ele>
        <time>2011-04-05T10:20:51.000Z</time>
      </trkpt>
      <trkpt lat="43.66801" lon="7.09487">
        <ele>102.19999694824</ele>
        <time>2011-04-05T10:20:56.000Z</time>
      </trkpt>
      <trkpt lat="43.66814" lon="7.09475">
        <ele>103</ele>
        <time>2011-04-05T10:21:02.000Z</time>
      </trkpt>
      <trkpt lat="43.66821" lon="7.09464">
        <ele>103.59999847412</ele>
        <time>2011-04-05T10:21:06.000Z</time>
      </trkpt>
      <trkpt lat="43.66825" lon="7.09448">
        <ele>104.59999847412</ele>
        <time>2011-04-05T10:21:11.000Z</time>
      </trkpt>
      <trkpt lat="43.66829" lon="7.09436">
        <ele>105.40000152588</ele>
        <time>2011-04-05T10:21:15.000Z</time>
      </trkpt>
      <trkpt lat="43.66831" lon="7.0942">
        <ele>106.59999847412</ele>
        <time>2011-04-05T10:21:20.000Z</time>
      </trkpt>
      <trkpt lat="43.6683" lon="7.09405">
        <ele>107.40000152588</ele>
        <time>2011-04-05T10:21:25.000Z</time>
      </trkpt>
      <trkpt lat="43.66828" lon="7.09402">
        <ele>107.40000152588</ele>
        <time>2011-04-05T10:21:26.000Z</time>
      </trkpt>
      <trkpt lat="43.66829" lon="7.09384">
        <ele>108.59999847412</ele>
        <time>2011-04-05T10:21:31.000Z</time>
      </trkpt>
      <trkpt lat="43.66831" lon="7.09371">
        <ele>109.40000152588</ele>
        <time>2011-04-05T10:21:35.000Z</time>
      </trkpt>
      <trkpt lat="43.66837" lon="7.09346">
        <ele>111.19999694824</ele>
        <time>2011-04-05T10:21:42.000Z</time>
      </trkpt>
      <trkpt lat="43.66845" lon="7.09328">
        <ele>112.59999847412</ele>
        <time>2011-04-05T10:21:47.000Z</time>
      </trkpt>
      <trkpt lat="43.6685" lon="7.09312">
        <ele>114.80000305176</ele>
        <time>2011-04-05T10:21:52.000Z</time>
      </trkpt>
      <trkpt lat="43.66849" lon="7.0931">
        <ele>115.19999694824</ele>
        <time>2011-04-05T10:21:53.000Z</time>
      </trkpt>
      <trkpt lat="43.66848" lon="7.093">
        <ele>116.40000152588</ele>
        <time>2011-04-05T10:21:58.000Z</time>
      </trkpt>
      <trkpt lat="43.66841" lon="7.09287">
        <ele>118.80000305176</ele>
        <time>2011-04-05T10:22:05.000Z</time>
      </trkpt>
      <trkpt lat="43.66835" lon="7.09277">
        <ele>120.59999847412</ele>
        <time>2011-04-05T10:22:10.000Z</time>
      </trkpt>
      <trkpt lat="43.6683" lon="7.09269">
        <ele>121.80000305176</ele>
        <time>2011-04-05T10:22:15.000Z</time>
      </trkpt>
      <trkpt lat="43.66822" lon="7.09261">
        <ele>122.59999847412</ele>
        <time>2011-04-05T10:22:21.000Z</time>
      </trkpt>
      <trkpt lat="43.66822" lon="7.09256">
        <ele>123.40000152588</ele>
        <time>2011-04-05T10:22:23.000Z</time>
      </trkpt>
      <trkpt lat="43.66828" lon="7.09243">
        <ele>125.40000152588</ele>
        <time>2011-04-05T10:22:28.000Z</time>
      </trkpt>
      <trkpt lat="43.66829" lon="7.0924">
        <ele>125.80000305176</ele>
        <time>2011-04-05T10:22:29.000Z</time>
      </trkpt>
      <trkpt lat="43.66831" lon="7.09231">
        <ele>127</ele>
        <time>2011-04-05T10:22:32.000Z</time>
      </trkpt>
      <trkpt lat="43.6683" lon="7.09224">
        <ele>127.80000305176</ele>
        <time>2011-04-05T10:22:35.000Z</time>
      </trkpt>
      <trkpt lat="43.66837" lon="7.09209">
        <ele>129.39999389648</ele>
        <time>2011-04-05T10:22:40.000Z</time>
      </trkpt>
      <trkpt lat="43.66838" lon="7.09193">
        <ele>131.19999694824</ele>
        <time>2011-04-05T10:22:45.000Z</time>
      </trkpt>
      <trkpt lat="43.66838" lon="7.09183">
        <ele>132.39999389648</ele>
        <time>2011-04-05T10:22:48.000Z</time>
      </trkpt>
      <trkpt lat="43.66839" lon="7.09167">
        <ele>134</ele>
        <time>2011-04-05T10:22:54.000Z</time>
      </trkpt>
      <trkpt lat="43.66839" lon="7.09152">
        <ele>134.80000305176</ele>
        <time>2011-04-05T10:22:59.000Z</time>
      </trkpt>
      <trkpt lat="43.66842" lon="7.09134">
        <ele>135.39999389648</ele>
        <time>2011-04-05T10:23:04.000Z</time>
      </trkpt>
      <trkpt lat="43.66843" lon="7.09118">
        <ele>136</ele>
        <time>2011-04-05T10:23:09.000Z</time>
      </trkpt>
      <trkpt lat="43.66844" lon="7.09112">
        <ele>136.19999694824</ele>
        <time>2011-04-05T10:23:11.000Z</time>
      </trkpt>
      <trkpt lat="43.66847" lon="7.09093">
        <ele>137</ele>
        <time>2011-04-05T10:23:17.000Z</time>
      </trkpt>
      <trkpt lat="43.66848" lon="7.09081">
        <ele>137.39999389648</ele>
        <time>2011-04-05T10:23:21.000Z</time>
      </trkpt>
      <trkpt lat="43.66847" lon="7.09067">
        <ele>137.60000610352</ele>
        <time>2011-04-05T10:23:25.000Z</time>
      </trkpt>
      <trkpt lat="43.66849" lon="7.09055">
        <ele>137.60000610352</ele>
        <time>2011-04-05T10:23:29.000Z</time>
      </trkpt>
      <trkpt lat="43.66854" lon="7.09037">
        <ele>137.39999389648</ele>
        <time>2011-04-05T10:23:35.000Z</time>
      </trkpt>
      <trkpt lat="43.6685" lon="7.09017">
        <ele>138</ele>
        <time>2011-04-05T10:23:41.000Z</time>
      </trkpt>
      <trkpt lat="43.66847" lon="7.09003">
        <ele>138.39999389648</ele>
        <time>2011-04-05T10:23:46.000Z</time>
      </trkpt>
      <trkpt lat="43.66844" lon="7.08993">
        <ele>138.60000610352</ele>
        <time>2011-04-05T10:23:50.000Z</time>
      </trkpt>
      <trkpt lat="43.66841" lon="7.08982">
        <ele>138.80000305176</ele>
        <time>2011-04-05T10:23:54.000Z</time>
      </trkpt>
      <trkpt lat="43.6685" lon="7.0896">
        <ele>139</ele>
        <time>2011-04-05T10:24:01.000Z</time>
      </trkpt>
      <trkpt lat="43.6686" lon="7.08944">
        <ele>139.39999389648</ele>
        <time>2011-04-05T10:24:07.000Z</time>
      </trkpt>
      <trkpt lat="43.66867" lon="7.08929">
        <ele>140.19999694824</ele>
        <time>2011-04-05T10:24:12.000Z</time>
      </trkpt>
      <trkpt lat="43.66873" lon="7.0891">
        <ele>141.60000610352</ele>
        <time>2011-04-05T10:24:18.000Z</time>
      </trkpt>
      <trkpt lat="43.66879" lon="7.08891">
        <ele>143.60000610352</ele>
        <time>2011-04-05T10:24:24.000Z</time>
      </trkpt>
      <trkpt lat="43.66883" lon="7.08879">
        <ele>145</ele>
        <time>2011-04-05T10:24:28.000Z</time>
      </trkpt>
      <trkpt lat="43.66888" lon="7.08859">
        <ele>147.19999694824</ele>
        <time>2011-04-05T10:24:34.000Z</time>
      </trkpt>
      <trkpt lat="43.66892" lon="7.08846">
        <ele>148.80000305176</ele>
        <time>2011-04-05T10:24:39.000Z</time>
      </trkpt>
      <trkpt lat="43.66895" lon="7.0883">
        <ele>150.60000610352</ele>
        <time>2011-04-05T10:24:44.000Z</time>
      </trkpt>
      <trkpt lat="43.66898" lon="7.08814">
        <ele>152.60000610352</ele>
        <time>2011-04-05T10:24:49.000Z</time>
      </trkpt>
      <trkpt lat="43.66903" lon="7.08799">
        <ele>154.39999389648</ele>
        <time>2011-04-05T10:24:54.000Z</time>
      </trkpt>
      <trkpt lat="43.66903" lon="7.08782">
        <ele>156.39999389648</ele>
        <time>2011-04-05T10:25:00.000Z</time>
      </trkpt>
      <trkpt lat="43.66902" lon="7.08768">
        <ele>158</ele>
        <time>2011-04-05T10:25:05.000Z</time>
      </trkpt>
      <trkpt lat="43.66899" lon="7.08753">
        <ele>160</ele>
        <time>2011-04-05T10:25:10.000Z</time>
      </trkpt>
      <trkpt lat="43.66897" lon="7.08737">
        <ele>161.80000305176</ele>
        <time>2011-04-05T10:25:16.000Z</time>
      </trkpt>
      <trkpt lat="43.66897" lon="7.08724">
        <ele>162.80000305176</ele>
        <time>2011-04-05T10:25:21.000Z</time>
      </trkpt>
      <trkpt lat="43.66895" lon="7.08707">
        <ele>164.39999389648</ele>
        <time>2011-04-05T10:25:26.000Z</time>
      </trkpt>
      <trkpt lat="43.66892" lon="7.08688">
        <ele>166.60000610352</ele>
        <time>2011-04-05T10:25:31.000Z</time>
      </trkpt>
      <trkpt lat="43.66894" lon="7.08669">
        <ele>168</ele>
        <time>2011-04-05T10:25:36.000Z</time>
      </trkpt>
      <trkpt lat="43.66896" lon="7.08651">
        <ele>168.80000305176</ele>
        <time>2011-04-05T10:25:41.000Z</time>
      </trkpt>
      <trkpt lat="43.66896" lon="7.08641">
        <ele>169.19999694824</ele>
        <time>2011-04-05T10:25:45.000Z</time>
      </trkpt>
      <trkpt lat="43.66899" lon="7.08618">
        <ele>169.80000305176</ele>
        <time>2011-04-05T10:25:51.000Z</time>
      </trkpt>
      <trkpt lat="43.669" lon="7.08602">
        <ele>170.19999694824</ele>
        <time>2011-04-05T10:25:56.000Z</time>
      </trkpt>
      <trkpt lat="43.669" lon="7.08594">
        <ele>170.60000610352</ele>
        <time>2011-04-05T10:25:58.000Z</time>
      </trkpt>
      <trkpt lat="43.66898" lon="7.08569">
        <ele>172.19999694824</ele>
        <time>2011-04-05T10:26:04.000Z</time>
      </trkpt>
      <trkpt lat="43.66896" lon="7.08549">
        <ele>173.60000610352</ele>
        <time>2011-04-05T10:26:09.000Z</time>
      </trkpt>
      <trkpt lat="43.6689" lon="7.08531">
        <ele>175.39999389648</ele>
        <time>2011-04-05T10:26:14.000Z</time>
      </trkpt>
      <trkpt lat="43.66883" lon="7.08515">
        <ele>177.60000610352</ele>
        <time>2011-04-05T10:26:19.000Z</time>
      </trkpt>
      <trkpt lat="43.66881" lon="7.08501">
        <ele>178.60000610352</ele>
        <time>2011-04-05T10:26:23.000Z</time>
      </trkpt>
      <trkpt lat="43.66883" lon="7.08487">
        <ele>178.60000610352</ele>
        <time>2011-04-05T10:26:27.000Z</time>
      </trkpt>
      <trkpt lat="43.66886" lon="7.08463">
        <ele>178.80000305176</ele>
        <time>2011-04-05T10:26:33.000Z</time>
      </trkpt>
      <trkpt lat="43.66884" lon="7.0845">
        <ele>179.60000610352</ele>
        <time>2011-04-05T10:26:37.000Z</time>
      </trkpt>
      <trkpt lat="43.66881" lon="7.08431">
        <ele>180.39999389648</ele>
        <time>2011-04-05T10:26:43.000Z</time>
      </trkpt>
      <trkpt lat="43.66882" lon="7.08423">
        <ele>180.60000610352</ele>
        <time>2011-04-05T10:26:45.000Z</time>
      </trkpt>
      <trkpt lat="43.66894" lon="7.08413">
        <ele>180.19999694824</ele>
        <time>2011-04-05T10:26:50.000Z</time>
      </trkpt>
      <trkpt lat="43.66898" lon="7.08413">
        <ele>179.80000305176</ele>
        <time>2011-04-05T10:26:52.000Z</time>
      </trkpt>
      <trkpt lat="43.6691" lon="7.08422">
        <ele>178</ele>
        <time>2011-04-05T10:26:57.000Z</time>
      </trkpt>
      <trkpt lat="43.66926" lon="7.08432">
        <ele>176</ele>
        <time>2011-04-05T10:27:03.000Z</time>
      </trkpt>
      <trkpt lat="43.6694" lon="7.08439">
        <ele>174.19999694824</ele>
        <time>2011-04-05T10:27:08.000Z</time>
      </trkpt>
      <trkpt lat="43.66954" lon="7.08447">
        <ele>172.39999389648</ele>
        <time>2011-04-05T10:27:13.000Z</time>
      </trkpt>
      <trkpt lat="43.6697" lon="7.08453">
        <ele>170.60000610352</ele>
        <time>2011-04-05T10:27:18.000Z</time>
      </trkpt>
      <trkpt lat="43.66992" lon="7.08457">
        <ele>168.19999694824</ele>
        <time>2011-04-05T10:27:24.000Z</time>
      </trkpt>
      <trkpt lat="43.67012" lon="7.08455">
        <ele>166.80000305176</ele>
        <time>2011-04-05T10:27:29.000Z</time>
      </trkpt>
      <trkpt lat="43.67029" lon="7.08454">
        <ele>165.80000305176</ele>
        <time>2011-04-05T10:27:33.000Z</time>
      </trkpt>
      <trkpt lat="43.67047" lon="7.08453">
        <ele>164.60000610352</ele>
        <time>2011-04-05T10:27:38.000Z</time>
      </trkpt>
      <trkpt lat="43.67061" lon="7.08449">
        <ele>164</ele>
        <time>2011-04-05T10:27:42.000Z</time>
      </trkpt>
      <trkpt lat="43.67077" lon="7.08446">
        <ele>163.39999389648</ele>
        <time>2011-04-05T10:27:46.000Z</time>
      </trkpt>
      <trkpt lat="43.67097" lon="7.08438">
        <ele>162</ele>
        <time>2011-04-05T10:27:52.000Z</time>
      </trkpt>
      <trkpt lat="43.67114" lon="7.08421">
        <ele>162</ele>
        <time>2011-04-05T10:27:58.000Z</time>
      </trkpt>
      <trkpt lat="43.67126" lon="7.08409">
        <ele>162</ele>
        <time>2011-04-05T10:28:03.000Z</time>
      </trkpt>
      <trkpt lat="43.67141" lon="7.08403">
        <ele>160.60000610352</ele>
        <time>2011-04-05T10:28:08.000Z</time>
      </trkpt>
      <trkpt lat="43.67161" lon="7.08395">
        <ele>158.60000610352</ele>
        <time>2011-04-05T10:28:14.000Z</time>
      </trkpt>
      <trkpt lat="43.6717" lon="7.08391">
        <ele>158.39999389648</ele>
        <time>2011-04-05T10:28:17.000Z</time>
      </trkpt>
      <trkpt lat="43.67184" lon="7.08395">
        <ele>157.60000610352</ele>
        <time>2011-04-05T10:28:23.000Z</time>
      </trkpt>
      <trkpt lat="43.67203" lon="7.08404">
        <ele>155.60000610352</ele>
        <time>2011-04-05T10:28:27.000Z</time>
      </trkpt>
      <trkpt lat="43.67218" lon="7.08414">
        <ele>153.39999389648</ele>
        <time>2011-04-05T10:28:31.000Z</time>
      </trkpt>
      <trkpt lat="43.67223" lon="7.08417">
        <ele>152.60000610352</ele>
        <time>2011-04-05T10:28:32.000Z</time>
      </trkpt>
      <trkpt lat="43.67245" lon="7.08431">
        <ele>148.60000610352</ele>
        <time>2011-04-05T10:28:37.000Z</time>
      </trkpt>
      <trkpt lat="43.67257" lon="7.08446">
        <ele>145.39999389648</ele>
        <time>2011-04-05T10:28:41.000Z</time>
      </trkpt>
      <trkpt lat="43.67269" lon="7.08467">
        <ele>141</ele>
        <time>2011-04-05T10:28:47.000Z</time>
      </trkpt>
      <trkpt lat="43.6728" lon="7.0848">
        <ele>138.39999389648</ele>
        <time>2011-04-05T10:28:51.000Z</time>
      </trkpt>
      <trkpt lat="43.6729" lon="7.08488">
        <ele>136.80000305176</ele>
        <time>2011-04-05T10:28:55.000Z</time>
      </trkpt>
      <trkpt lat="43.67305" lon="7.08497">
        <ele>135</ele>
        <time>2011-04-05T10:29:00.000Z</time>
      </trkpt>
      <trkpt lat="43.67314" lon="7.08501">
        <ele>134.19999694824</ele>
        <time>2011-04-05T10:29:04.000Z</time>
      </trkpt>
      <trkpt lat="43.6733" lon="7.08512">
        <ele>132.60000610352</ele>
        <time>2011-04-05T10:29:09.000Z</time>
      </trkpt>
      <trkpt lat="43.67344" lon="7.08522">
        <ele>130.80000305176</ele>
        <time>2011-04-05T10:29:14.000Z</time>
      </trkpt>
      <trkpt lat="43.67363" lon="7.08532">
        <ele>128.60000610352</ele>
        <time>2011-04-05T10:29:19.000Z</time>
      </trkpt>
      <trkpt lat="43.6738" lon="7.08542">
        <ele>126.59999847412</ele>
        <time>2011-04-05T10:29:24.000Z</time>
      </trkpt>
      <trkpt lat="43.67397" lon="7.08555">
        <ele>123.80000305176</ele>
        <time>2011-04-05T10:29:30.000Z</time>
      </trkpt>
      <trkpt lat="43.6741" lon="7.08564">
        <ele>122</ele>
        <time>2011-04-05T10:29:34.000Z</time>
      </trkpt>
      <trkpt lat="43.67426" lon="7.0857">
        <ele>120.40000152588</ele>
        <time>2011-04-05T10:29:39.000Z</time>
      </trkpt>
      <trkpt lat="43.67438" lon="7.08575">
        <ele>119</ele>
        <time>2011-04-05T10:29:43.000Z</time>
      </trkpt>
      <trkpt lat="43.67451" lon="7.08577">
        <ele>118</ele>
        <time>2011-04-05T10:29:47.000Z</time>
      </trkpt>
      <trkpt lat="43.67472" lon="7.08577">
        <ele>117.40000152588</ele>
        <time>2011-04-05T10:29:53.000Z</time>
      </trkpt>
      <trkpt lat="43.67487" lon="7.08578">
        <ele>116.40000152588</ele>
        <time>2011-04-05T10:29:57.000Z</time>
      </trkpt>
      <trkpt lat="43.67506" lon="7.08574">
        <ele>116.40000152588</ele>
        <time>2011-04-05T10:30:02.000Z</time>
      </trkpt>
      <trkpt lat="43.67519" lon="7.08565">
        <ele>117</ele>
        <time>2011-04-05T10:30:07.000Z</time>
      </trkpt>
      <trkpt lat="43.67529" lon="7.08555">
        <ele>118.19999694824</ele>
        <time>2011-04-05T10:30:11.000Z</time>
      </trkpt>
      <trkpt lat="43.67545" lon="7.08546">
        <ele>118.59999847412</ele>
        <time>2011-04-05T10:30:17.000Z</time>
      </trkpt>
      <trkpt lat="43.6756" lon="7.08538">
        <ele>118.80000305176</ele>
        <time>2011-04-05T10:30:22.000Z</time>
      </trkpt>
      <trkpt lat="43.67579" lon="7.08532">
        <ele>118</ele>
        <time>2011-04-05T10:30:27.000Z</time>
      </trkpt>
      <trkpt lat="43.67598" lon="7.08527">
        <ele>117</ele>
        <time>2011-04-05T10:30:33.000Z</time>
      </trkpt>
      <trkpt lat="43.67614" lon="7.08525">
        <ele>115.59999847412</ele>
        <time>2011-04-05T10:30:38.000Z</time>
      </trkpt>
      <trkpt lat="43.67624" lon="7.08527">
        <ele>114</ele>
        <time>2011-04-05T10:30:41.000Z</time>
      </trkpt>
      <trkpt lat="43.67644" lon="7.08521">
        <ele>113</ele>
        <time>2011-04-05T10:30:47.000Z</time>
      </trkpt>
      <trkpt lat="43.6766" lon="7.08514">
        <ele>112.59999847412</ele>
        <time>2011-04-05T10:30:52.000Z</time>
      </trkpt>
      <trkpt lat="43.67678" lon="7.08506">
        <ele>111.80000305176</ele>
        <time>2011-04-05T10:30:58.000Z</time>
      </trkpt>
      <trkpt lat="43.67694" lon="7.08494">
        <ele>111.80000305176</ele>
        <time>2011-04-05T10:31:03.000Z</time>
      </trkpt>
      <trkpt lat="43.6771" lon="7.08486">
        <ele>110.80000305176</ele>
        <time>2011-04-05T10:31:08.000Z</time>
      </trkpt>
      <trkpt lat="43.67725" lon="7.08478">
        <ele>110.19999694824</ele>
        <time>2011-04-05T10:31:13.000Z</time>
      </trkpt>
      <trkpt lat="43.67739" lon="7.08466">
        <ele>110.19999694824</ele>
        <time>2011-04-05T10:31:18.000Z</time>
      </trkpt>
      <trkpt lat="43.67754" lon="7.08459">
        <ele>109.19999694824</ele>
        <time>2011-04-05T10:31:22.000Z</time>
      </trkpt>
      <trkpt lat="43.67767" lon="7.0845">
        <ele>108.59999847412</ele>
        <time>2011-04-05T10:31:26.000Z</time>
      </trkpt>
      <trkpt lat="43.67784" lon="7.08439">
        <ele>108</ele>
        <time>2011-04-05T10:31:31.000Z</time>
      </trkpt>
      <trkpt lat="43.67789" lon="7.08423">
        <ele>110.59999847412</ele>
        <time>2011-04-05T10:31:35.000Z</time>
      </trkpt>
      <trkpt lat="43.67792" lon="7.08402">
        <ele>113.19999694824</ele>
        <time>2011-04-05T10:31:40.000Z</time>
      </trkpt>
      <trkpt lat="43.67794" lon="7.08385">
        <ele>114.80000305176</ele>
        <time>2011-04-05T10:31:45.000Z</time>
      </trkpt>
      <trkpt lat="43.6781" lon="7.08364">
        <ele>112.80000305176</ele>
        <time>2011-04-05T10:31:52.000Z</time>
      </trkpt>
      <trkpt lat="43.67824" lon="7.08349">
        <ele>110</ele>
        <time>2011-04-05T10:31:57.000Z</time>
      </trkpt>
      <trkpt lat="43.67842" lon="7.08331">
        <ele>104.40000152588</ele>
        <time>2011-04-05T10:32:03.000Z</time>
      </trkpt>
      <trkpt lat="43.67858" lon="7.0832">
        <ele>97.400001525879</ele>
        <time>2011-04-05T10:32:08.000Z</time>
      </trkpt>
      <trkpt lat="43.67872" lon="7.08314">
        <ele>91.599998474121</ele>
        <time>2011-04-05T10:32:12.000Z</time>
      </trkpt>
      <trkpt lat="43.67882" lon="7.08333">
        <ele>88.800003051758</ele>
        <time>2011-04-05T10:32:16.000Z</time>
      </trkpt>
      <trkpt lat="43.67885" lon="7.08352">
        <ele>88.800003051758</ele>
        <time>2011-04-05T10:32:20.000Z</time>
      </trkpt>
      <trkpt lat="43.67885" lon="7.0836">
        <ele>89.400001525879</ele>
        <time>2011-04-05T10:32:22.000Z</time>
      </trkpt>
      <trkpt lat="43.67887" lon="7.08378">
        <ele>90</ele>
        <time>2011-04-05T10:32:28.000Z</time>
      </trkpt>
      <trkpt lat="43.67887" lon="7.08381">
        <ele>90.400001525879</ele>
        <time>2011-04-05T10:32:29.000Z</time>
      </trkpt>
      <trkpt lat="43.67897" lon="7.08401">
        <ele>89.400001525879</ele>
        <time>2011-04-05T10:32:34.000Z</time>
      </trkpt>
      <trkpt lat="43.67897" lon="7.08421">
        <ele>90.599998474121</ele>
        <time>2011-04-05T10:32:39.000Z</time>
      </trkpt>
      <trkpt lat="43.67903" lon="7.08438">
        <ele>88.800003051758</ele>
        <time>2011-04-05T10:32:44.000Z</time>
      </trkpt>
      <trkpt lat="43.67911" lon="7.08453">
        <ele>87.199996948242</ele>
        <time>2011-04-05T10:32:49.000Z</time>
      </trkpt>
      <trkpt lat="43.67922" lon="7.08452">
        <ele>85</ele>
        <time>2011-04-05T10:32:54.000Z</time>
      </trkpt>
      <trkpt lat="43.67933" lon="7.0845">
        <ele>82.199996948242</ele>
        <time>2011-04-05T10:32:58.000Z</time>
      </trkpt>
      <trkpt lat="43.6795" lon="7.08453">
        <ele>78</ele>
        <time>2011-04-05T10:33:04.000Z</time>
      </trkpt>
      <trkpt lat="43.67961" lon="7.08459">
        <ele>75.800003051758</ele>
        <time>2011-04-05T10:33:08.000Z</time>
      </trkpt>
      <trkpt lat="43.67964" lon="7.08469">
        <ele>76.400001525879</ele>
        <time>2011-04-05T10:33:12.000Z</time>
      </trkpt>
      <trkpt lat="43.67967" lon="7.08479">
        <ele>77.199996948242</ele>
        <time>2011-04-05T10:33:15.000Z</time>
      </trkpt>
      <trkpt lat="43.67976" lon="7.08485">
        <ele>76.800003051758</ele>
        <time>2011-04-05T10:33:19.000Z</time>
      </trkpt>
      <trkpt lat="43.6798" lon="7.08492">
        <ele>77.400001525879</ele>
        <time>2011-04-05T10:33:22.000Z</time>
      </trkpt>
      <trkpt lat="43.67975" lon="7.08504">
        <ele>79.599998474121</ele>
        <time>2011-04-05T10:33:26.000Z</time>
      </trkpt>
      <trkpt lat="43.6797" lon="7.08506">
        <ele>80</ele>
        <time>2011-04-05T10:33:28.000Z</time>
      </trkpt>
      <trkpt lat="43.67965" lon="7.08509">
        <ele>80.400001525879</ele>
        <time>2011-04-05T10:33:30.000Z</time>
      </trkpt>
      <trkpt lat="43.67955" lon="7.08523">
        <ele>80.400001525879</ele>
        <time>2011-04-05T10:33:35.000Z</time>
      </trkpt>
      <trkpt lat="43.67953" lon="7.08525">
        <ele>80.599998474121</ele>
        <time>2011-04-05T10:33:36.000Z</time>
      </trkpt>
      <trkpt lat="43.67942" lon="7.08539">
        <ele>80.400001525879</ele>
        <time>2011-04-05T10:33:42.000Z</time>
      </trkpt>
      <trkpt lat="43.67933" lon="7.08539">
        <ele>80.800003051758</ele>
        <time>2011-04-05T10:33:46.000Z</time>
      </trkpt>
      <trkpt lat="43.67917" lon="7.0853">
        <ele>82.800003051758</ele>
        <time>2011-04-05T10:33:52.000Z</time>
      </trkpt>
      <trkpt lat="43.67902" lon="7.08526">
        <ele>83.400001525879</ele>
        <time>2011-04-05T10:33:57.000Z</time>
      </trkpt>
      <trkpt lat="43.67887" lon="7.08524">
        <ele>83.800003051758</ele>
        <time>2011-04-05T10:34:02.000Z</time>
      </trkpt>
      <trkpt lat="43.67875" lon="7.08525">
        <ele>83.599998474121</ele>
        <time>2011-04-05T10:34:06.000Z</time>
      </trkpt>
      <trkpt lat="43.6786" lon="7.0853">
        <ele>83.199996948242</ele>
        <time>2011-04-05T10:34:11.000Z</time>
      </trkpt>
      <trkpt lat="43.67845" lon="7.08527">
        <ele>84</ele>
        <time>2011-04-05T10:34:16.000Z</time>
      </trkpt>
      <trkpt lat="43.67827" lon="7.08525">
        <ele>85.199996948242</ele>
        <time>2011-04-05T10:34:22.000Z</time>
      </trkpt>
      <trkpt lat="43.67817" lon="7.08522">
        <ele>87.199996948242</ele>
        <time>2011-04-05T10:34:27.000Z</time>
      </trkpt>
      <trkpt lat="43.67804" lon="7.08524">
        <ele>88.800003051758</ele>
        <time>2011-04-05T10:34:32.000Z</time>
      </trkpt>
      <trkpt lat="43.67793" lon="7.08528">
        <ele>90</ele>
        <time>2011-04-05T10:34:37.000Z</time>
      </trkpt>
      <trkpt lat="43.67777" lon="7.08535">
        <ele>91.400001525879</ele>
        <time>2011-04-05T10:34:43.000Z</time>
      </trkpt>
      <trkpt lat="43.67762" lon="7.08545">
        <ele>92</ele>
        <time>2011-04-05T10:34:49.000Z</time>
      </trkpt>
      <trkpt lat="43.67749" lon="7.08552">
        <ele>92.800003051758</ele>
        <time>2011-04-05T10:34:54.000Z</time>
      </trkpt>
      <trkpt lat="43.67739" lon="7.08558">
        <ele>93.400001525879</ele>
        <time>2011-04-05T10:34:58.000Z</time>
      </trkpt>
      <trkpt lat="43.67725" lon="7.08565">
        <ele>93.599998474121</ele>
        <time>2011-04-05T10:35:04.000Z</time>
      </trkpt>
      <trkpt lat="43.67716" lon="7.08573">
        <ele>93.599998474121</ele>
        <time>2011-04-05T10:35:08.000Z</time>
      </trkpt>
      <trkpt lat="43.67702" lon="7.08581">
        <ele>93.400001525879</ele>
        <time>2011-04-05T10:35:13.000Z</time>
      </trkpt>
      <trkpt lat="43.67696" lon="7.08585">
        <ele>93.800003051758</ele>
        <time>2011-04-05T10:35:15.000Z</time>
      </trkpt>
      <trkpt lat="43.67685" lon="7.08583">
        <ele>95</ele>
        <time>2011-04-05T10:35:19.000Z</time>
      </trkpt>
      <trkpt lat="43.67673" lon="7.08589">
        <ele>96.400001525879</ele>
        <time>2011-04-05T10:35:24.000Z</time>
      </trkpt>
      <trkpt lat="43.6766" lon="7.08593">
        <ele>98</ele>
        <time>2011-04-05T10:35:29.000Z</time>
      </trkpt>
      <trkpt lat="43.67649" lon="7.08596">
        <ele>99.400001525879</ele>
        <time>2011-04-05T10:35:34.000Z</time>
      </trkpt>
      <trkpt lat="43.67649" lon="7.08609">
        <ele>99.599998474121</ele>
        <time>2011-04-05T10:35:40.000Z</time>
      </trkpt>
      <trkpt lat="43.67647" lon="7.0862">
        <ele>100.19999694824</ele>
        <time>2011-04-05T10:35:44.000Z</time>
      </trkpt>
      <trkpt lat="43.67644" lon="7.0862">
        <ele>100.40000152588</ele>
        <time>2011-04-05T10:35:45.000Z</time>
      </trkpt>
      <trkpt lat="43.67629" lon="7.08627">
        <ele>102.40000152588</ele>
        <time>2011-04-05T10:35:51.000Z</time>
      </trkpt>
      <trkpt lat="43.6762" lon="7.0863">
        <ele>103.59999847412</ele>
        <time>2011-04-05T10:35:54.000Z</time>
      </trkpt>
      <trkpt lat="43.67606" lon="7.08626">
        <ele>105.19999694824</ele>
        <time>2011-04-05T10:35:59.000Z</time>
      </trkpt>
      <trkpt lat="43.67605" lon="7.08623">
        <ele>105.19999694824</ele>
        <time>2011-04-05T10:36:00.000Z</time>
      </trkpt>
      <trkpt lat="43.67595" lon="7.08614">
        <ele>106.40000152588</ele>
        <time>2011-04-05T10:36:05.000Z</time>
      </trkpt>
      <trkpt lat="43.67588" lon="7.0861">
        <ele>107.19999694824</ele>
        <time>2011-04-05T10:36:08.000Z</time>
      </trkpt>
      <trkpt lat="43.67573" lon="7.08607">
        <ele>108.59999847412</ele>
        <time>2011-04-05T10:36:14.000Z</time>
      </trkpt>
      <trkpt lat="43.67569" lon="7.0861">
        <ele>108.80000305176</ele>
        <time>2011-04-05T10:36:16.000Z</time>
      </trkpt>
      <trkpt lat="43.67557" lon="7.08613">
        <ele>109.40000152588</ele>
        <time>2011-04-05T10:36:21.000Z</time>
      </trkpt>
      <trkpt lat="43.67555" lon="7.08613">
        <ele>109.40000152588</ele>
        <time>2011-04-05T10:36:22.000Z</time>
      </trkpt>
      <trkpt lat="43.67553" lon="7.08613">
        <ele>109.59999847412</ele>
        <time>2011-04-05T10:36:24.000Z</time>
      </trkpt>
      <trkpt lat="43.6754" lon="7.08616">
        <ele>110.19999694824</ele>
        <time>2011-04-05T10:36:30.000Z</time>
      </trkpt>
      <trkpt lat="43.67535" lon="7.08626">
        <ele>109.80000305176</ele>
        <time>2011-04-05T10:36:34.000Z</time>
      </trkpt>
      <trkpt lat="43.67533" lon="7.08639">
        <ele>109.40000152588</ele>
        <time>2011-04-05T10:36:39.000Z</time>
      </trkpt>
      <trkpt lat="43.67533" lon="7.08642">
        <ele>109.19999694824</ele>
        <time>2011-04-05T10:36:40.000Z</time>
      </trkpt>
      <trkpt lat="43.67534" lon="7.08653">
        <ele>108.59999847412</ele>
        <time>2011-04-05T10:36:46.000Z</time>
      </trkpt>
      <trkpt lat="43.67539" lon="7.08655">
        <ele>108.40000152588</ele>
        <time>2011-04-05T10:36:50.000Z</time>
      </trkpt>
      <trkpt lat="43.67547" lon="7.08662">
        <ele>108</ele>
        <time>2011-04-05T10:36:55.000Z</time>
      </trkpt>
      <trkpt lat="43.67555" lon="7.0867">
        <ele>108</ele>
        <time>2011-04-05T10:36:59.000Z</time>
      </trkpt>
      <trkpt lat="43.67555" lon="7.08677">
        <ele>108.40000152588</ele>
        <time>2011-04-05T10:37:01.000Z</time>
      </trkpt>
      <trkpt lat="43.67559" lon="7.08706">
        <ele>109.40000152588</ele>
        <time>2011-04-05T10:37:08.000Z</time>
      </trkpt>
      <trkpt lat="43.67556" lon="7.08724">
        <ele>110.19999694824</ele>
        <time>2011-04-05T10:37:13.000Z</time>
      </trkpt>
      <trkpt lat="43.67553" lon="7.0873">
        <ele>110.40000152588</ele>
        <time>2011-04-05T10:37:15.000Z</time>
      </trkpt>
      <trkpt lat="43.6754" lon="7.08732">
        <ele>110.59999847412</ele>
        <time>2011-04-05T10:37:20.000Z</time>
      </trkpt>
      <trkpt lat="43.67538" lon="7.08733">
        <ele>110.80000305176</ele>
        <time>2011-04-05T10:37:21.000Z</time>
      </trkpt>
      <trkpt lat="43.67533" lon="7.08735">
        <ele>110.80000305176</ele>
        <time>2011-04-05T10:37:23.000Z</time>
      </trkpt>
      <trkpt lat="43.67531" lon="7.08752">
        <ele>111.59999847412</ele>
        <time>2011-04-05T10:37:29.000Z</time>
      </trkpt>
      <trkpt lat="43.67536" lon="7.08766">
        <ele>113</ele>
        <time>2011-04-05T10:37:34.000Z</time>
      </trkpt>
      <trkpt lat="43.67529" lon="7.08776">
        <ele>114.19999694824</ele>
        <time>2011-04-05T10:37:38.000Z</time>
      </trkpt>
      <trkpt lat="43.67524" lon="7.08779">
        <ele>114.59999847412</ele>
        <time>2011-04-05T10:37:42.000Z</time>
      </trkpt>
      <trkpt lat="43.67519" lon="7.08782">
        <ele>114.80000305176</ele>
        <time>2011-04-05T10:37:45.000Z</time>
      </trkpt>
      <trkpt lat="43.67503" lon="7.08783">
        <ele>115</ele>
        <time>2011-04-05T10:37:51.000Z</time>
      </trkpt>
      <trkpt lat="43.67501" lon="7.08783">
        <ele>115</ele>
        <time>2011-04-05T10:37:52.000Z</time>
      </trkpt>
      <trkpt lat="43.67488" lon="7.08793">
        <ele>116.40000152588</ele>
        <time>2011-04-05T10:37:58.000Z</time>
      </trkpt>
      <trkpt lat="43.67486" lon="7.08793">
        <ele>116.59999847412</ele>
        <time>2011-04-05T10:38:02.000Z</time>
      </trkpt>
      <trkpt lat="43.67485" lon="7.08795">
        <ele>116.80000305176</ele>
        <time>2011-04-05T10:38:09.000Z</time>
      </trkpt>
      <trkpt lat="43.67482" lon="7.08807">
        <ele>118</ele>
        <time>2011-04-05T10:38:14.000Z</time>
      </trkpt>
      <trkpt lat="43.67471" lon="7.08808">
        <ele>118.40000152588</ele>
        <time>2011-04-05T10:38:19.000Z</time>
      </trkpt>
      <trkpt lat="43.67471" lon="7.08809">
        <ele>118.59999847412</ele>
        <time>2011-04-05T10:38:20.000Z</time>
      </trkpt>
      <trkpt lat="43.67468" lon="7.0882">
        <ele>119.59999847412</ele>
        <time>2011-04-05T10:38:24.000Z</time>
      </trkpt>
      <trkpt lat="43.6746" lon="7.08839">
        <ele>121</ele>
        <time>2011-04-05T10:38:31.000Z</time>
      </trkpt>
      <trkpt lat="43.6746" lon="7.08858">
        <ele>121.59999847412</ele>
        <time>2011-04-05T10:38:37.000Z</time>
      </trkpt>
      <trkpt lat="43.67459" lon="7.08861">
        <ele>121.80000305176</ele>
        <time>2011-04-05T10:38:38.000Z</time>
      </trkpt>
      <trkpt lat="43.67454" lon="7.08876">
        <ele>122.19999694824</ele>
        <time>2011-04-05T10:38:43.000Z</time>
      </trkpt>
      <trkpt lat="43.67452" lon="7.08891">
        <ele>122.59999847412</ele>
        <time>2011-04-05T10:38:48.000Z</time>
      </trkpt>
      <trkpt lat="43.67447" lon="7.08908">
        <ele>123</ele>
        <time>2011-04-05T10:38:53.000Z</time>
      </trkpt>
      <trkpt lat="43.67446" lon="7.08929">
        <ele>123</ele>
        <time>2011-04-05T10:38:59.000Z</time>
      </trkpt>
      <trkpt lat="43.67448" lon="7.08959">
        <ele>122.59999847412</ele>
        <time>2011-04-05T10:39:06.000Z</time>
      </trkpt>
      <trkpt lat="43.67443" lon="7.08975">
        <ele>122.19999694824</ele>
        <time>2011-04-05T10:39:10.000Z</time>
      </trkpt>
      <trkpt lat="43.67439" lon="7.08992">
        <ele>121.80000305176</ele>
        <time>2011-04-05T10:39:14.000Z</time>
      </trkpt>
      <trkpt lat="43.67426" lon="7.08998">
        <ele>121.19999694824</ele>
        <time>2011-04-05T10:39:19.000Z</time>
      </trkpt>
      <trkpt lat="43.67424" lon="7.08999">
        <ele>121.19999694824</ele>
        <time>2011-04-05T10:39:20.000Z</time>
      </trkpt>
      <trkpt lat="43.67419" lon="7.09004">
        <ele>121</ele>
        <time>2011-04-05T10:39:22.000Z</time>
      </trkpt>
      <trkpt lat="43.67418" lon="7.0902">
        <ele>120.59999847412</ele>
        <time>2011-04-05T10:39:27.000Z</time>
      </trkpt>
      <trkpt lat="43.67414" lon="7.09033">
        <ele>120.59999847412</ele>
        <time>2011-04-05T10:39:31.000Z</time>
      </trkpt>
      <trkpt lat="43.67411" lon="7.0904">
        <ele>120.59999847412</ele>
        <time>2011-04-05T10:39:34.000Z</time>
      </trkpt>
      <trkpt lat="43.67403" lon="7.09041">
        <ele>121</ele>
        <time>2011-04-05T10:39:39.000Z</time>
      </trkpt>
      <trkpt lat="43.67401" lon="7.09049">
        <ele>121</ele>
        <time>2011-04-05T10:39:43.000Z</time>
      </trkpt>
      <trkpt lat="43.67392" lon="7.09064">
        <ele>120.80000305176</ele>
        <time>2011-04-05T10:39:48.000Z</time>
      </trkpt>
      <trkpt lat="43.67388" lon="7.0907">
        <ele>120.59999847412</ele>
        <time>2011-04-05T10:39:50.000Z</time>
      </trkpt>
      <trkpt lat="43.67381" lon="7.09081">
        <ele>120.40000152588</ele>
        <time>2011-04-05T10:39:55.000Z</time>
      </trkpt>
      <trkpt lat="43.67378" lon="7.09085">
        <ele>120.40000152588</ele>
        <time>2011-04-05T10:39:57.000Z</time>
      </trkpt>
      <trkpt lat="43.67368" lon="7.09096">
        <ele>120.19999694824</ele>
        <time>2011-04-05T10:40:02.000Z</time>
      </trkpt>
      <trkpt lat="43.67354" lon="7.09108">
        <ele>120</ele>
        <time>2011-04-05T10:40:08.000Z</time>
      </trkpt>
      <trkpt lat="43.67345" lon="7.09112">
        <ele>119.80000305176</ele>
        <time>2011-04-05T10:40:12.000Z</time>
      </trkpt>
      <trkpt lat="43.67336" lon="7.09124">
        <ele>119.40000152588</ele>
        <time>2011-04-05T10:40:17.000Z</time>
      </trkpt>
      <trkpt lat="43.67325" lon="7.09136">
        <ele>119.59999847412</ele>
        <time>2011-04-05T10:40:22.000Z</time>
      </trkpt>
      <trkpt lat="43.67322" lon="7.09141">
        <ele>119.59999847412</ele>
        <time>2011-04-05T10:40:24.000Z</time>
      </trkpt>
      <trkpt lat="43.6731" lon="7.09148">
        <ele>120</ele>
        <time>2011-04-05T10:40:30.000Z</time>
      </trkpt>
      <trkpt lat="43.6731" lon="7.09148">
        <ele>120</ele>
        <time>2011-04-05T10:40:31.000Z</time>
      </trkpt>
      <trkpt lat="43.67308" lon="7.09158">
        <ele>119.59999847412</ele>
        <time>2011-04-05T10:40:35.000Z</time>
      </trkpt>
      <trkpt lat="43.67302" lon="7.09163">
        <ele>119.59999847412</ele>
        <time>2011-04-05T10:40:38.000Z</time>
      </trkpt>
      <trkpt lat="43.67294" lon="7.09178">
        <ele>119.40000152588</ele>
        <time>2011-04-05T10:40:44.000Z</time>
      </trkpt>
      <trkpt lat="43.67279" lon="7.09194">
        <ele>119.19999694824</ele>
        <time>2011-04-05T10:40:50.000Z</time>
      </trkpt>
      <trkpt lat="43.67269" lon="7.09204">
        <ele>119.19999694824</ele>
        <time>2011-04-05T10:40:55.000Z</time>
      </trkpt>
      <trkpt lat="43.67261" lon="7.09212">
        <ele>119</ele>
        <time>2011-04-05T10:40:59.000Z</time>
      </trkpt>
      <trkpt lat="43.67245" lon="7.09229">
        <ele>118.40000152588</ele>
        <time>2011-04-05T10:41:05.000Z</time>
      </trkpt>
      <trkpt lat="43.67232" lon="7.09244">
        <ele>118.59999847412</ele>
        <time>2011-04-05T10:41:10.000Z</time>
      </trkpt>
      <trkpt lat="43.67227" lon="7.09252">
        <ele>118.40000152588</ele>
        <time>2011-04-05T10:41:13.000Z</time>
      </trkpt>
      <trkpt lat="43.67226" lon="7.09251">
        <ele>118.59999847412</ele>
        <time>2011-04-05T10:41:15.000Z</time>
      </trkpt>
      <trkpt lat="43.67231" lon="7.09239">
        <ele>119</ele>
        <time>2011-04-05T10:41:20.000Z</time>
      </trkpt>
      <trkpt lat="43.67233" lon="7.09228">
        <ele>119.59999847412</ele>
        <time>2011-04-05T10:41:24.000Z</time>
      </trkpt>
      <trkpt lat="43.67225" lon="7.09222">
        <ele>120.59999847412</ele>
        <time>2011-04-05T10:41:28.000Z</time>
      </trkpt>
      <trkpt lat="43.67214" lon="7.09229">
        <ele>120.80000305176</ele>
        <time>2011-04-05T10:41:33.000Z</time>
      </trkpt>
      <trkpt lat="43.67198" lon="7.09238">
        <ele>121.40000152588</ele>
        <time>2011-04-05T10:41:39.000Z</time>
      </trkpt>
      <trkpt lat="43.67186" lon="7.09244">
        <ele>122</ele>
        <time>2011-04-05T10:41:44.000Z</time>
      </trkpt>
      <trkpt lat="43.67175" lon="7.09248">
        <ele>122.40000152588</ele>
        <time>2011-04-05T10:41:48.000Z</time>
      </trkpt>
      <trkpt lat="43.6716" lon="7.09254">
        <ele>122.59999847412</ele>
        <time>2011-04-05T10:41:53.000Z</time>
      </trkpt>
      <trkpt lat="43.6715" lon="7.09255">
        <ele>122.59999847412</ele>
        <time>2011-04-05T10:41:57.000Z</time>
      </trkpt>
      <trkpt lat="43.67137" lon="7.09256">
        <ele>122.59999847412</ele>
        <time>2011-04-05T10:42:01.000Z</time>
      </trkpt>
      <trkpt lat="43.67121" lon="7.09257">
        <ele>122.59999847412</ele>
        <time>2011-04-05T10:42:06.000Z</time>
      </trkpt>
      <trkpt lat="43.67113" lon="7.09256">
        <ele>122.80000305176</ele>
        <time>2011-04-05T10:42:10.000Z</time>
      </trkpt>
      <trkpt lat="43.67112" lon="7.09251">
        <ele>122.80000305176</ele>
        <time>2011-04-05T10:42:15.000Z</time>
      </trkpt>
      <trkpt lat="43.67109" lon="7.09251">
        <ele>122.80000305176</ele>
        <time>2011-04-05T10:42:29.000Z</time>
      </trkpt>
      <trkpt lat="43.67108" lon="7.09252">
        <ele>122.80000305176</ele>
        <time>2011-04-05T10:42:32.000Z</time>
      </trkpt>
      <trkpt lat="43.67095" lon="7.09252">
        <ele>122.80000305176</ele>
        <time>2011-04-05T10:42:37.000Z</time>
      </trkpt>
      <trkpt lat="43.67087" lon="7.09251">
        <ele>122.80000305176</ele>
        <time>2011-04-05T10:42:41.000Z</time>
      </trkpt>
      <trkpt lat="43.67078" lon="7.0925">
        <ele>122.40000152588</ele>
        <time>2011-04-05T10:42:45.000Z</time>
      </trkpt>
      <trkpt lat="43.67072" lon="7.0925">
        <ele>122</ele>
        <time>2011-04-05T10:42:47.000Z</time>
      </trkpt>
      <trkpt lat="43.67051" lon="7.09242">
        <ele>120.40000152588</ele>
        <time>2011-04-05T10:42:54.000Z</time>
      </trkpt>
      <trkpt lat="43.67039" lon="7.09243">
        <ele>119.19999694824</ele>
        <time>2011-04-05T10:42:58.000Z</time>
      </trkpt>
      <trkpt lat="43.6703" lon="7.09249">
        <ele>118.40000152588</ele>
        <time>2011-04-05T10:43:02.000Z</time>
      </trkpt>
      <trkpt lat="43.67024" lon="7.09252">
        <ele>118</ele>
        <time>2011-04-05T10:43:05.000Z</time>
      </trkpt>
      <trkpt lat="43.67014" lon="7.09267">
        <ele>117.59999847412</ele>
        <time>2011-04-05T10:43:10.000Z</time>
      </trkpt>
      <trkpt lat="43.67005" lon="7.09281">
        <ele>117.40000152588</ele>
        <time>2011-04-05T10:43:15.000Z</time>
      </trkpt>
      <trkpt lat="43.66997" lon="7.09286">
        <ele>117.19999694824</ele>
        <time>2011-04-05T10:43:19.000Z</time>
      </trkpt>
      <trkpt lat="43.66983" lon="7.09299">
        <ele>117</ele>
        <time>2011-04-05T10:43:25.000Z</time>
      </trkpt>
      <trkpt lat="43.66982" lon="7.09305">
        <ele>117</ele>
        <time>2011-04-05T10:43:27.000Z</time>
      </trkpt>
      <trkpt lat="43.66969" lon="7.09304">
        <ele>116.19999694824</ele>
        <time>2011-04-05T10:43:32.000Z</time>
      </trkpt>
      <trkpt lat="43.66955" lon="7.09309">
        <ele>115.40000152588</ele>
        <time>2011-04-05T10:43:37.000Z</time>
      </trkpt>
      <trkpt lat="43.66944" lon="7.09314">
        <ele>114.80000305176</ele>
        <time>2011-04-05T10:43:41.000Z</time>
      </trkpt>
      <trkpt lat="43.66933" lon="7.09324">
        <ele>113.59999847412</ele>
        <time>2011-04-05T10:43:46.000Z</time>
      </trkpt>
      <trkpt lat="43.66921" lon="7.09329">
        <ele>112.59999847412</ele>
        <time>2011-04-05T10:43:50.000Z</time>
      </trkpt>
      <trkpt lat="43.66916" lon="7.09333">
        <ele>112</ele>
        <time>2011-04-05T10:43:52.000Z</time>
      </trkpt>
      <trkpt lat="43.66916" lon="7.09347">
        <ele>111.80000305176</ele>
        <time>2011-04-05T10:43:57.000Z</time>
      </trkpt>
      <trkpt lat="43.6691" lon="7.09355">
        <ele>111.59999847412</ele>
        <time>2011-04-05T10:44:01.000Z</time>
      </trkpt>
      <trkpt lat="43.6691" lon="7.09363">
        <ele>111.40000152588</ele>
        <time>2011-04-05T10:44:03.000Z</time>
      </trkpt>
      <trkpt lat="43.66911" lon="7.09385">
        <ele>111.19999694824</ele>
        <time>2011-04-05T10:44:08.000Z</time>
      </trkpt>
      <trkpt lat="43.66904" lon="7.09402">
        <ele>110.59999847412</ele>
        <time>2011-04-05T10:44:12.000Z</time>
      </trkpt>
      <trkpt lat="43.66894" lon="7.09421">
        <ele>109.80000305176</ele>
        <time>2011-04-05T10:44:17.000Z</time>
      </trkpt>
      <trkpt lat="43.66886" lon="7.0944">
        <ele>108.80000305176</ele>
        <time>2011-04-05T10:44:22.000Z</time>
      </trkpt>
      <trkpt lat="43.66888" lon="7.09447">
        <ele>108.59999847412</ele>
        <time>2011-04-05T10:44:24.000Z</time>
      </trkpt>
      <trkpt lat="43.66885" lon="7.09468">
        <ele>107.80000305176</ele>
        <time>2011-04-05T10:44:29.000Z</time>
      </trkpt>
      <trkpt lat="43.66884" lon="7.09473">
        <ele>107.59999847412</ele>
        <time>2011-04-05T10:44:30.000Z</time>
      </trkpt>
      <trkpt lat="43.66868" lon="7.09484">
        <ele>105.80000305176</ele>
        <time>2011-04-05T10:44:36.000Z</time>
      </trkpt>
      <trkpt lat="43.66859" lon="7.09506">
        <ele>104</ele>
        <time>2011-04-05T10:44:43.000Z</time>
      </trkpt>
      <trkpt lat="43.66852" lon="7.09521">
        <ele>102.59999847412</ele>
        <time>2011-04-05T10:44:48.000Z</time>
      </trkpt>
      <trkpt lat="43.66844" lon="7.09534">
        <ele>101.19999694824</ele>
        <time>2011-04-05T10:44:52.000Z</time>
      </trkpt>
      <trkpt lat="43.66833" lon="7.09544">
        <ele>99.800003051758</ele>
        <time>2011-04-05T10:44:56.000Z</time>
      </trkpt>
      <trkpt lat="43.66821" lon="7.09563">
        <ele>99</ele>
        <time>2011-04-05T10:45:02.000Z</time>
      </trkpt>
      <trkpt lat="43.6681" lon="7.09578">
        <ele>98.599998474121</ele>
        <time>2011-04-05T10:45:07.000Z</time>
      </trkpt>
      <trkpt lat="43.66791" lon="7.09589">
        <ele>98.400001525879</ele>
        <time>2011-04-05T10:45:12.000Z</time>
      </trkpt>
      <trkpt lat="43.66774" lon="7.09598">
        <ele>98.199996948242</ele>
        <time>2011-04-05T10:45:17.000Z</time>
      </trkpt>
      <trkpt lat="43.66762" lon="7.09604">
        <ele>98.199996948242</ele>
        <time>2011-04-05T10:45:22.000Z</time>
      </trkpt>
      <trkpt lat="43.66754" lon="7.09615">
        <ele>97.599998474121</ele>
        <time>2011-04-05T10:45:26.000Z</time>
      </trkpt>
      <trkpt lat="43.66749" lon="7.09634">
        <ele>96.199996948242</ele>
        <time>2011-04-05T10:45:31.000Z</time>
      </trkpt>
      <trkpt lat="43.66741" lon="7.09654">
        <ele>94.199996948242</ele>
        <time>2011-04-05T10:45:36.000Z</time>
      </trkpt>
      <trkpt lat="43.66735" lon="7.09669">
        <ele>92.800003051758</ele>
        <time>2011-04-05T10:45:40.000Z</time>
      </trkpt>
      <trkpt lat="43.66732" lon="7.09689">
        <ele>91.400001525879</ele>
        <time>2011-04-05T10:45:45.000Z</time>
      </trkpt>
      <trkpt lat="43.66712" lon="7.0971">
        <ele>89.400001525879</ele>
        <time>2011-04-05T10:45:51.000Z</time>
      </trkpt>
      <trkpt lat="43.66706" lon="7.09726">
        <ele>88.599998474121</ele>
        <time>2011-04-05T10:45:55.000Z</time>
      </trkpt>
      <trkpt lat="43.66702" lon="7.09743">
        <ele>87.599998474121</ele>
        <time>2011-04-05T10:46:00.000Z</time>
      </trkpt>
      <trkpt lat="43.66697" lon="7.09765">
        <ele>86.800003051758</ele>
        <time>2011-04-05T10:46:05.000Z</time>
      </trkpt>
      <trkpt lat="43.66693" lon="7.09787">
        <ele>86.400001525879</ele>
        <time>2011-04-05T10:46:10.000Z</time>
      </trkpt>
      <trkpt lat="43.66692" lon="7.09806">
        <ele>86</ele>
        <time>2011-04-05T10:46:14.000Z</time>
      </trkpt>
      <trkpt lat="43.66687" lon="7.09821">
        <ele>85.599998474121</ele>
        <time>2011-04-05T10:46:18.000Z</time>
      </trkpt>
      <trkpt lat="43.66677" lon="7.09844">
        <ele>85</ele>
        <time>2011-04-05T10:46:24.000Z</time>
      </trkpt>
      <trkpt lat="43.66667" lon="7.09859">
        <ele>84.599998474121</ele>
        <time>2011-04-05T10:46:28.000Z</time>
      </trkpt>
      <trkpt lat="43.66663" lon="7.09877">
        <ele>83.599998474121</ele>
        <time>2011-04-05T10:46:32.000Z</time>
      </trkpt>
      <trkpt lat="43.66659" lon="7.09899">
        <ele>82.400001525879</ele>
        <time>2011-04-05T10:46:37.000Z</time>
      </trkpt>
      <trkpt lat="43.66654" lon="7.0992">
        <ele>81</ele>
        <time>2011-04-05T10:46:42.000Z</time>
      </trkpt>
      <trkpt lat="43.66647" lon="7.09942">
        <ele>78.599998474121</ele>
        <time>2011-04-05T10:46:47.000Z</time>
      </trkpt>
      <trkpt lat="43.66649" lon="7.09967">
        <ele>76.199996948242</ele>
        <time>2011-04-05T10:46:52.000Z</time>
      </trkpt>
      <trkpt lat="43.6665" lon="7.09972">
        <ele>75.599998474121</ele>
        <time>2011-04-05T10:46:53.000Z</time>
      </trkpt>
      <trkpt lat="43.66641" lon="7.09991">
        <ele>73.599998474121</ele>
        <time>2011-04-05T10:46:58.000Z</time>
      </trkpt>
      <trkpt lat="43.66637" lon="7.09999">
        <ele>73</ele>
        <time>2011-04-05T10:47:00.000Z</time>
      </trkpt>
      <trkpt lat="43.66638" lon="7.10009">
        <ele>72</ele>
        <time>2011-04-05T10:47:03.000Z</time>
      </trkpt>
      <trkpt lat="43.66629" lon="7.1001">
        <ele>72</ele>
        <time>2011-04-05T10:47:08.000Z</time>
      </trkpt>
      <trkpt lat="43.66621" lon="7.10025">
        <ele>70.800003051758</ele>
        <time>2011-04-05T10:47:13.000Z</time>
      </trkpt>
      <trkpt lat="43.66613" lon="7.10036">
        <ele>70.199996948242</ele>
        <time>2011-04-05T10:47:17.000Z</time>
      </trkpt>
      <trkpt lat="43.66611" lon="7.10043">
        <ele>69.599998474121</ele>
        <time>2011-04-05T10:47:20.000Z</time>
      </trkpt>
      <trkpt lat="43.66612" lon="7.10048">
        <ele>69.199996948242</ele>
        <time>2011-04-05T10:47:22.000Z</time>
      </trkpt>
      <trkpt lat="43.66617" lon="7.1005">
        <ele>68.800003051758</ele>
        <time>2011-04-05T10:47:26.000Z</time>
      </trkpt>
      <trkpt lat="43.66623" lon="7.1006">
        <ele>67.599998474121</ele>
        <time>2011-04-05T10:47:30.000Z</time>
      </trkpt>
      <trkpt lat="43.66632" lon="7.10076">
        <ele>65.599998474121</ele>
        <time>2011-04-05T10:47:36.000Z</time>
      </trkpt>
      <trkpt lat="43.66633" lon="7.10083">
        <ele>64.800003051758</ele>
        <time>2011-04-05T10:47:38.000Z</time>
      </trkpt>
      <trkpt lat="43.66633" lon="7.10083">
        <ele>64.800003051758</ele>
        <time>2011-04-05T10:47:40.000Z</time>
      </trkpt>
      <trkpt lat="43.66623" lon="7.10088">
        <ele>65.599998474121</ele>
        <time>2011-04-05T10:47:45.000Z</time>
      </trkpt>
      <trkpt lat="43.6662" lon="7.10095">
        <ele>65.599998474121</ele>
        <time>2011-04-05T10:47:48.000Z</time>
      </trkpt>
      <trkpt lat="43.66619" lon="7.10102">
        <ele>65.599998474121</ele>
        <time>2011-04-05T10:47:53.000Z</time>
      </trkpt>
      <trkpt lat="43.66618" lon="7.10105">
        <ele>65.800003051758</ele>
        <time>2011-04-05T10:47:57.000Z</time>
      </trkpt>
      <trkpt lat="43.66617" lon="7.10106">
        <ele>65.800003051758</ele>
        <time>2011-04-05T10:48:04.000Z</time>
      </trkpt>
      <trkpt lat="43.66609" lon="7.10101">
        <ele>66.599998474121</ele>
        <time>2011-04-05T10:48:09.000Z</time>
      </trkpt>
      <trkpt lat="43.66607" lon="7.10099">
        <ele>67</ele>
        <time>2011-04-05T10:48:12.000Z</time>
      </trkpt>
      <trkpt lat="43.66621" lon="7.10106">
        <ele>65.400001525879</ele>
        <time>2011-04-05T10:48:17.000Z</time>
      </trkpt>
      <trkpt lat="43.66623" lon="7.10111">
        <ele>65.199996948242</ele>
        <time>2011-04-05T10:48:20.000Z</time>
      </trkpt>
      <trkpt lat="43.66617" lon="7.1012">
        <ele>65.800003051758</ele>
        <time>2011-04-05T10:48:25.000Z</time>
      </trkpt>
      <trkpt lat="43.66615" lon="7.10134">
        <ele>65.800003051758</ele>
        <time>2011-04-05T10:48:30.000Z</time>
      </trkpt>
      <trkpt lat="43.66607" lon="7.10149">
        <ele>67</ele>
        <time>2011-04-05T10:48:37.000Z</time>
      </trkpt>
      <trkpt lat="43.66604" lon="7.10151">
        <ele>67.400001525879</ele>
        <time>2011-04-05T10:48:38.000Z</time>
      </trkpt>
      <trkpt lat="43.66599" lon="7.10155">
        <ele>68.199996948242</ele>
        <time>2011-04-05T10:48:41.000Z</time>
      </trkpt>
      <trkpt lat="43.66589" lon="7.10168">
        <ele>70</ele>
        <time>2011-04-05T10:48:47.000Z</time>
      </trkpt>
      <trkpt lat="43.66587" lon="7.10171">
        <ele>70.599998474121</ele>
        <time>2011-04-05T10:48:49.000Z</time>
      </trkpt>
      <trkpt lat="43.66576" lon="7.10183">
        <ele>73</ele>
        <time>2011-04-05T10:48:56.000Z</time>
      </trkpt>
      <trkpt lat="43.66569" lon="7.10196">
        <ele>75</ele>
        <time>2011-04-05T10:49:03.000Z</time>
      </trkpt>
      <trkpt lat="43.66564" lon="7.10205">
        <ele>76.400001525879</ele>
        <time>2011-04-05T10:49:08.000Z</time>
      </trkpt>
      <trkpt lat="43.66562" lon="7.10207">
        <ele>76.800003051758</ele>
        <time>2011-04-05T10:49:09.000Z</time>
      </trkpt>
      <trkpt lat="43.66555" lon="7.10219">
        <ele>79</ele>
        <time>2011-04-05T10:49:15.000Z</time>
      </trkpt>
      <trkpt lat="43.66548" lon="7.10227">
        <ele>80.800003051758</ele>
        <time>2011-04-05T10:49:19.000Z</time>
      </trkpt>
      <trkpt lat="43.66538" lon="7.10235">
        <ele>83</ele>
        <time>2011-04-05T10:49:24.000Z</time>
      </trkpt>
      <trkpt lat="43.66532" lon="7.10242">
        <ele>84.800003051758</ele>
        <time>2011-04-05T10:49:29.000Z</time>
      </trkpt>
      <trkpt lat="43.66531" lon="7.10245">
        <ele>85.400001525879</ele>
        <time>2011-04-05T10:49:31.000Z</time>
      </trkpt>
      <trkpt lat="43.6653" lon="7.10249">
        <ele>86.199996948242</ele>
        <time>2011-04-05T10:49:35.000Z</time>
      </trkpt>
      <trkpt lat="43.66523" lon="7.10254">
        <ele>88</ele>
        <time>2011-04-05T10:49:40.000Z</time>
      </trkpt>
      <trkpt lat="43.66519" lon="7.10259">
        <ele>89.199996948242</ele>
        <time>2011-04-05T10:49:44.000Z</time>
      </trkpt>
      <trkpt lat="43.66518" lon="7.10266">
        <ele>90.400001525879</ele>
        <time>2011-04-05T10:49:49.000Z</time>
      </trkpt>
      <trkpt lat="43.66519" lon="7.10266">
        <ele>90.400001525879</ele>
        <time>2011-04-05T10:49:53.000Z</time>
      </trkpt>
      <trkpt lat="43.66515" lon="7.10268">
        <ele>91.400001525879</ele>
        <time>2011-04-05T10:49:56.000Z</time>
      </trkpt>
      <trkpt lat="43.66506" lon="7.10277">
        <ele>94.400001525879</ele>
        <time>2011-04-05T10:50:04.000Z</time>
      </trkpt>
      <trkpt lat="43.66506" lon="7.1028">
        <ele>94.800003051758</ele>
        <time>2011-04-05T10:50:06.000Z</time>
      </trkpt>
      <trkpt lat="43.665" lon="7.10284">
        <ele>96.599998474121</ele>
        <time>2011-04-05T10:50:10.000Z</time>
      </trkpt>
      <trkpt lat="43.66498" lon="7.10283">
        <ele>96.599998474121</ele>
        <time>2011-04-05T10:50:11.000Z</time>
      </trkpt>
      <trkpt lat="43.66487" lon="7.10278">
        <ele>96.199996948242</ele>
        <time>2011-04-05T10:50:16.000Z</time>
      </trkpt>
      <trkpt lat="43.66484" lon="7.10275">
        <ele>95.800003051758</ele>
        <time>2011-04-05T10:50:18.000Z</time>
      </trkpt>
      <trkpt lat="43.6648" lon="7.10278">
        <ele>96.599998474121</ele>
        <time>2011-04-05T10:50:23.000Z</time>
      </trkpt>
      <trkpt lat="43.66477" lon="7.10289">
        <ele>98.800003051758</ele>
        <time>2011-04-05T10:50:28.000Z</time>
      </trkpt>
      <trkpt lat="43.66469" lon="7.10297">
        <ele>100.80000305176</ele>
        <time>2011-04-05T10:50:33.000Z</time>
      </trkpt>
      <trkpt lat="43.66463" lon="7.10306">
        <ele>103</ele>
        <time>2011-04-05T10:50:37.000Z</time>
      </trkpt>
      <trkpt lat="43.66449" lon="7.10313">
        <ele>105.40000152588</ele>
        <time>2011-04-05T10:50:43.000Z</time>
      </trkpt>
      <trkpt lat="43.66437" lon="7.10315">
        <ele>106.80000305176</ele>
        <time>2011-04-05T10:50:48.000Z</time>
      </trkpt>
      <trkpt lat="43.66426" lon="7.1032">
        <ele>108.80000305176</ele>
        <time>2011-04-05T10:50:53.000Z</time>
      </trkpt>
      <trkpt lat="43.66417" lon="7.10329">
        <ele>112</ele>
        <time>2011-04-05T10:50:59.000Z</time>
      </trkpt>
      <trkpt lat="43.66408" lon="7.10337">
        <ele>114</ele>
        <time>2011-04-05T10:51:05.000Z</time>
      </trkpt>
      <trkpt lat="43.66402" lon="7.10341">
        <ele>115.19999694824</ele>
        <time>2011-04-05T10:51:09.000Z</time>
      </trkpt>
      <trkpt lat="43.66392" lon="7.10342">
        <ele>115.40000152588</ele>
        <time>2011-04-05T10:51:14.000Z</time>
      </trkpt>
      <trkpt lat="43.6638" lon="7.10342">
        <ele>115.59999847412</ele>
        <time>2011-04-05T10:51:20.000Z</time>
      </trkpt>
      <trkpt lat="43.66368" lon="7.10344">
        <ele>116.19999694824</ele>
        <time>2011-04-05T10:51:25.000Z</time>
      </trkpt>
      <trkpt lat="43.66357" lon="7.10341">
        <ele>115.59999847412</ele>
        <time>2011-04-05T10:51:30.000Z</time>
      </trkpt>
      <trkpt lat="43.66344" lon="7.1034">
        <ele>115.40000152588</ele>
        <time>2011-04-05T10:51:35.000Z</time>
      </trkpt>
      <trkpt lat="43.66334" lon="7.1034">
        <ele>115.59999847412</ele>
        <time>2011-04-05T10:51:39.000Z</time>
      </trkpt>
      <trkpt lat="43.66327" lon="7.10344">
        <ele>115.80000305176</ele>
        <time>2011-04-05T10:51:44.000Z</time>
      </trkpt>
      <trkpt lat="43.6632" lon="7.10347">
        <ele>115.80000305176</ele>
        <time>2011-04-05T10:51:48.000Z</time>
      </trkpt>
      <trkpt lat="43.66304" lon="7.10354">
        <ele>115.40000152588</ele>
        <time>2011-04-05T10:51:54.000Z</time>
      </trkpt>
      <trkpt lat="43.66301" lon="7.10355">
        <ele>115.19999694824</ele>
        <time>2011-04-05T10:51:56.000Z</time>
      </trkpt>
      <trkpt lat="43.66292" lon="7.10365">
        <ele>116.59999847412</ele>
        <time>2011-04-05T10:52:02.000Z</time>
      </trkpt>
      <trkpt lat="43.66282" lon="7.10371">
        <ele>117</ele>
        <time>2011-04-05T10:52:07.000Z</time>
      </trkpt>
      <trkpt lat="43.6628" lon="7.10372">
        <ele>117</ele>
        <time>2011-04-05T10:52:08.000Z</time>
      </trkpt>
      <trkpt lat="43.66272" lon="7.10379">
        <ele>118</ele>
        <time>2011-04-05T10:52:13.000Z</time>
      </trkpt>
      <trkpt lat="43.6627" lon="7.1038">
        <ele>118</ele>
        <time>2011-04-05T10:52:14.000Z</time>
      </trkpt>
      <trkpt lat="43.66263" lon="7.10389">
        <ele>119.59999847412</ele>
        <time>2011-04-05T10:52:20.000Z</time>
      </trkpt>
      <trkpt lat="43.6626" lon="7.10391">
        <ele>119.80000305176</ele>
        <time>2011-04-05T10:52:22.000Z</time>
      </trkpt>
      <trkpt lat="43.66249" lon="7.104">
        <ele>120.80000305176</ele>
        <time>2011-04-05T10:52:29.000Z</time>
      </trkpt>
      <trkpt lat="43.66244" lon="7.10411">
        <ele>122.19999694824</ele>
        <time>2011-04-05T10:52:34.000Z</time>
      </trkpt>
      <trkpt lat="43.66235" lon="7.10425">
        <ele>122.40000152588</ele>
        <time>2011-04-05T10:52:40.000Z</time>
      </trkpt>
      <trkpt lat="43.66232" lon="7.10432">
        <ele>122.19999694824</ele>
        <time>2011-04-05T10:52:43.000Z</time>
      </trkpt>
      <trkpt lat="43.6623" lon="7.10442">
        <ele>123</ele>
        <time>2011-04-05T10:52:47.000Z</time>
      </trkpt>
      <trkpt lat="43.66229" lon="7.10448">
        <ele>123.59999847412</ele>
        <time>2011-04-05T10:52:49.000Z</time>
      </trkpt>
      <trkpt lat="43.66224" lon="7.10468">
        <ele>125</ele>
        <time>2011-04-05T10:52:55.000Z</time>
      </trkpt>
      <trkpt lat="43.66222" lon="7.1048">
        <ele>126.19999694824</ele>
        <time>2011-04-05T10:52:59.000Z</time>
      </trkpt>
      <trkpt lat="43.66221" lon="7.10496">
        <ele>128.39999389648</ele>
        <time>2011-04-05T10:53:04.000Z</time>
      </trkpt>
      <trkpt lat="43.66221" lon="7.10511">
        <ele>129.39999389648</ele>
        <time>2011-04-05T10:53:08.000Z</time>
      </trkpt>
      <trkpt lat="43.66214" lon="7.10531">
        <ele>129.19999694824</ele>
        <time>2011-04-05T10:53:14.000Z</time>
      </trkpt>
      <trkpt lat="43.66206" lon="7.10549">
        <ele>129</ele>
        <time>2011-04-05T10:53:19.000Z</time>
      </trkpt>
      <trkpt lat="43.66198" lon="7.10563">
        <ele>129</ele>
        <time>2011-04-05T10:53:24.000Z</time>
      </trkpt>
      <trkpt lat="43.66189" lon="7.1058">
        <ele>129.39999389648</ele>
        <time>2011-04-05T10:53:30.000Z</time>
      </trkpt>
      <trkpt lat="43.66178" lon="7.10599">
        <ele>128.80000305176</ele>
        <time>2011-04-05T10:53:36.000Z</time>
      </trkpt>
      <trkpt lat="43.66167" lon="7.10617">
        <ele>128.60000610352</ele>
        <time>2011-04-05T10:53:42.000Z</time>
      </trkpt>
      <trkpt lat="43.66156" lon="7.10633">
        <ele>127.59999847412</ele>
        <time>2011-04-05T10:53:47.000Z</time>
      </trkpt>
      <trkpt lat="43.66148" lon="7.10647">
        <ele>127.40000152588</ele>
        <time>2011-04-05T10:53:52.000Z</time>
      </trkpt>
      <trkpt lat="43.66137" lon="7.10662">
        <ele>127.59999847412</ele>
        <time>2011-04-05T10:53:57.000Z</time>
      </trkpt>
      <trkpt lat="43.66135" lon="7.10667">
        <ele>127.80000305176</ele>
        <time>2011-04-05T10:53:59.000Z</time>
      </trkpt>
      <trkpt lat="43.6613" lon="7.10679">
        <ele>127</ele>
        <time>2011-04-05T10:54:03.000Z</time>
      </trkpt>
      <trkpt lat="43.66128" lon="7.107">
        <ele>126.19999694824</ele>
        <time>2011-04-05T10:54:09.000Z</time>
      </trkpt>
      <trkpt lat="43.66132" lon="7.10716">
        <ele>125.80000305176</ele>
        <time>2011-04-05T10:54:14.000Z</time>
      </trkpt>
      <trkpt lat="43.66134" lon="7.10726">
        <ele>125.40000152588</ele>
        <time>2011-04-05T10:54:17.000Z</time>
      </trkpt>
      <trkpt lat="43.66139" lon="7.10737">
        <ele>125.19999694824</ele>
        <time>2011-04-05T10:54:22.000Z</time>
      </trkpt>
      <trkpt lat="43.66142" lon="7.10748">
        <ele>124.80000305176</ele>
        <time>2011-04-05T10:54:27.000Z</time>
      </trkpt>
      <trkpt lat="43.66145" lon="7.10758">
        <ele>123.80000305176</ele>
        <time>2011-04-05T10:54:32.000Z</time>
      </trkpt>
      <trkpt lat="43.66152" lon="7.10772">
        <ele>122.19999694824</ele>
        <time>2011-04-05T10:54:37.000Z</time>
      </trkpt>
      <trkpt lat="43.66149" lon="7.10785">
        <ele>120.80000305176</ele>
        <time>2011-04-05T10:54:41.000Z</time>
      </trkpt>
      <trkpt lat="43.66146" lon="7.10794">
        <ele>119.59999847412</ele>
        <time>2011-04-05T10:54:44.000Z</time>
      </trkpt>
      <trkpt lat="43.66145" lon="7.10814">
        <ele>117.40000152588</ele>
        <time>2011-04-05T10:54:50.000Z</time>
      </trkpt>
      <trkpt lat="43.66145" lon="7.10822">
        <ele>116.40000152588</ele>
        <time>2011-04-05T10:54:52.000Z</time>
      </trkpt>
      <trkpt lat="43.66148" lon="7.10831">
        <ele>115.40000152588</ele>
        <time>2011-04-05T10:54:57.000Z</time>
      </trkpt>
      <trkpt lat="43.66151" lon="7.10837">
        <ele>114.80000305176</ele>
        <time>2011-04-05T10:54:59.000Z</time>
      </trkpt>
      <trkpt lat="43.66153" lon="7.10857">
        <ele>112.59999847412</ele>
        <time>2011-04-05T10:55:05.000Z</time>
      </trkpt>
      <trkpt lat="43.66152" lon="7.10868">
        <ele>111.19999694824</ele>
        <time>2011-04-05T10:55:09.000Z</time>
      </trkpt>
      <trkpt lat="43.66148" lon="7.1088">
        <ele>110</ele>
        <time>2011-04-05T10:55:13.000Z</time>
      </trkpt>
      <trkpt lat="43.66146" lon="7.10885">
        <ele>109.40000152588</ele>
        <time>2011-04-05T10:55:15.000Z</time>
      </trkpt>
      <trkpt lat="43.66138" lon="7.10907">
        <ele>107</ele>
        <time>2011-04-05T10:55:21.000Z</time>
      </trkpt>
      <trkpt lat="43.66128" lon="7.10923">
        <ele>105.19999694824</ele>
        <time>2011-04-05T10:55:26.000Z</time>
      </trkpt>
      <trkpt lat="43.66116" lon="7.10941">
        <ele>103.80000305176</ele>
        <time>2011-04-05T10:55:32.000Z</time>
      </trkpt>
      <trkpt lat="43.66114" lon="7.10953">
        <ele>102.80000305176</ele>
        <time>2011-04-05T10:55:35.000Z</time>
      </trkpt>
      <trkpt lat="43.66105" lon="7.10972">
        <ele>101.40000152588</ele>
        <time>2011-04-05T10:55:40.000Z</time>
      </trkpt>
      <trkpt lat="43.66097" lon="7.10988">
        <ele>100.40000152588</ele>
        <time>2011-04-05T10:55:45.000Z</time>
      </trkpt>
      <trkpt lat="43.66087" lon="7.11007">
        <ele>98.800003051758</ele>
        <time>2011-04-05T10:55:51.000Z</time>
      </trkpt>
      <trkpt lat="43.66078" lon="7.11028">
        <ele>95.199996948242</ele>
        <time>2011-04-05T10:55:57.000Z</time>
      </trkpt>
      <trkpt lat="43.66071" lon="7.11042">
        <ele>92.400001525879</ele>
        <time>2011-04-05T10:56:01.000Z</time>
      </trkpt>
      <trkpt lat="43.66064" lon="7.11057">
        <ele>89.800003051758</ele>
        <time>2011-04-05T10:56:06.000Z</time>
      </trkpt>
      <trkpt lat="43.66062" lon="7.11058">
        <ele>89.199996948242</ele>
        <time>2011-04-05T10:56:07.000Z</time>
      </trkpt>
      <trkpt lat="43.66048" lon="7.11071">
        <ele>86.199996948242</ele>
        <time>2011-04-05T10:56:13.000Z</time>
      </trkpt>
      <trkpt lat="43.66041" lon="7.11091">
        <ele>83.599998474121</ele>
        <time>2011-04-05T10:56:19.000Z</time>
      </trkpt>
      <trkpt lat="43.66034" lon="7.11097">
        <ele>82.599998474121</ele>
        <time>2011-04-05T10:56:23.000Z</time>
      </trkpt>
      <trkpt lat="43.66025" lon="7.11095">
        <ele>81.800003051758</ele>
        <time>2011-04-05T10:56:27.000Z</time>
      </trkpt>
      <trkpt lat="43.66017" lon="7.11103">
        <ele>80.800003051758</ele>
        <time>2011-04-05T10:56:32.000Z</time>
      </trkpt>
      <trkpt lat="43.66011" lon="7.11115">
        <ele>79.800003051758</ele>
        <time>2011-04-05T10:56:36.000Z</time>
      </trkpt>
      <trkpt lat="43.66003" lon="7.11134">
        <ele>78.800003051758</ele>
        <time>2011-04-05T10:56:41.000Z</time>
      </trkpt>
      <trkpt lat="43.66001" lon="7.11137">
        <ele>78.599998474121</ele>
        <time>2011-04-05T10:56:42.000Z</time>
      </trkpt>
      <trkpt lat="43.65996" lon="7.11153">
        <ele>77.199996948242</ele>
        <time>2011-04-05T10:56:47.000Z</time>
      </trkpt>
      <trkpt lat="43.65995" lon="7.1117">
        <ele>76.800003051758</ele>
        <time>2011-04-05T10:56:51.000Z</time>
      </trkpt>
      <trkpt lat="43.65991" lon="7.11189">
        <ele>75.199996948242</ele>
        <time>2011-04-05T10:56:56.000Z</time>
      </trkpt>
      <trkpt lat="43.65993" lon="7.11204">
        <ele>74.800003051758</ele>
        <time>2011-04-05T10:57:01.000Z</time>
      </trkpt>
      <trkpt lat="43.65987" lon="7.11207">
        <ele>73.800003051758</ele>
        <time>2011-04-05T10:57:05.000Z</time>
      </trkpt>
      <trkpt lat="43.65985" lon="7.11207">
        <ele>73.199996948242</ele>
        <time>2011-04-05T10:57:06.000Z</time>
      </trkpt>
      <trkpt lat="43.65974" lon="7.1121">
        <ele>71.400001525879</ele>
        <time>2011-04-05T10:57:11.000Z</time>
      </trkpt>
      <trkpt lat="43.65974" lon="7.11218">
        <ele>71.199996948242</ele>
        <time>2011-04-05T10:57:15.000Z</time>
      </trkpt>
      <trkpt lat="43.65975" lon="7.11221">
        <ele>71.199996948242</ele>
        <time>2011-04-05T10:57:20.000Z</time>
      </trkpt>
      <trkpt lat="43.65976" lon="7.11221">
        <ele>71.199996948242</ele>
        <time>2011-04-05T10:57:21.000Z</time>
      </trkpt>
      <trkpt lat="43.65981" lon="7.11229">
        <ele>71.800003051758</ele>
        <time>2011-04-05T10:57:25.000Z</time>
      </trkpt>
      <trkpt lat="43.65981" lon="7.11232">
        <ele>71.599998474121</ele>
        <time>2011-04-05T10:57:26.000Z</time>
      </trkpt>
      <trkpt lat="43.65975" lon="7.11249">
        <ele>70</ele>
        <time>2011-04-05T10:57:31.000Z</time>
      </trkpt>
      <trkpt lat="43.65964" lon="7.11261">
        <ele>67.599998474121</ele>
        <time>2011-04-05T10:57:37.000Z</time>
      </trkpt>
      <trkpt lat="43.65961" lon="7.11264">
        <ele>66.800003051758</ele>
        <time>2011-04-05T10:57:39.000Z</time>
      </trkpt>
      <trkpt lat="43.65962" lon="7.11274">
        <ele>66.400001525879</ele>
        <time>2011-04-05T10:57:43.000Z</time>
      </trkpt>
      <trkpt lat="43.65964" lon="7.11281">
        <ele>66.199996948242</ele>
        <time>2011-04-05T10:57:45.000Z</time>
      </trkpt>
      <trkpt lat="43.65964" lon="7.11297">
        <ele>65.199996948242</ele>
        <time>2011-04-05T10:57:50.000Z</time>
      </trkpt>
      <trkpt lat="43.65962" lon="7.1131">
        <ele>64.199996948242</ele>
        <time>2011-04-05T10:57:54.000Z</time>
      </trkpt>
      <trkpt lat="43.6596" lon="7.11323">
        <ele>63.200000762939</ele>
        <time>2011-04-05T10:57:58.000Z</time>
      </trkpt>
      <trkpt lat="43.65955" lon="7.11339">
        <ele>62</ele>
        <time>2011-04-05T10:58:04.000Z</time>
      </trkpt>
      <trkpt lat="43.65951" lon="7.11346">
        <ele>61.599998474121</ele>
        <time>2011-04-05T10:58:07.000Z</time>
      </trkpt>
      <trkpt lat="43.65945" lon="7.11356">
        <ele>61</ele>
        <time>2011-04-05T10:58:11.000Z</time>
      </trkpt>
      <trkpt lat="43.65939" lon="7.11373">
        <ele>60.400001525879</ele>
        <time>2011-04-05T10:58:17.000Z</time>
      </trkpt>
      <trkpt lat="43.65935" lon="7.11392">
        <ele>60</ele>
        <time>2011-04-05T10:58:23.000Z</time>
      </trkpt>
      <trkpt lat="43.65931" lon="7.11409">
        <ele>59.599998474121</ele>
        <time>2011-04-05T10:58:29.000Z</time>
      </trkpt>
      <trkpt lat="43.65929" lon="7.11421">
        <ele>59.400001525879</ele>
        <time>2011-04-05T10:58:33.000Z</time>
      </trkpt>
      <trkpt lat="43.65926" lon="7.11432">
        <ele>59.400001525879</ele>
        <time>2011-04-05T10:58:38.000Z</time>
      </trkpt>
      <trkpt lat="43.65925" lon="7.11437">
        <ele>59.400001525879</ele>
        <time>2011-04-05T10:58:41.000Z</time>
      </trkpt>
      <trkpt lat="43.6592" lon="7.11446">
        <ele>59.400001525879</ele>
        <time>2011-04-05T10:58:46.000Z</time>
      </trkpt>
      <trkpt lat="43.65919" lon="7.11469">
        <ele>59.400001525879</ele>
        <time>2011-04-05T10:58:53.000Z</time>
      </trkpt>
      <trkpt lat="43.65918" lon="7.11489">
        <ele>59.799999237061</ele>
        <time>2011-04-05T10:58:58.000Z</time>
      </trkpt>
      <trkpt lat="43.65913" lon="7.1151">
        <ele>58.599998474121</ele>
        <time>2011-04-05T10:59:04.000Z</time>
      </trkpt>
      <trkpt lat="43.65913" lon="7.1152">
        <ele>58.200000762939</ele>
        <time>2011-04-05T10:59:07.000Z</time>
      </trkpt>
      <trkpt lat="43.65903" lon="7.11544">
        <ele>55</ele>
        <time>2011-04-05T10:59:14.000Z</time>
      </trkpt>
      <trkpt lat="43.65898" lon="7.11559">
        <ele>53.400001525879</ele>
        <time>2011-04-05T10:59:18.000Z</time>
      </trkpt>
      <trkpt lat="43.65894" lon="7.11576">
        <ele>52.599998474121</ele>
        <time>2011-04-05T10:59:23.000Z</time>
      </trkpt>
      <trkpt lat="43.65892" lon="7.11595">
        <ele>50.599998474121</ele>
        <time>2011-04-05T10:59:28.000Z</time>
      </trkpt>
      <trkpt lat="43.6589" lon="7.11613">
        <ele>48.200000762939</ele>
        <time>2011-04-05T10:59:33.000Z</time>
      </trkpt>
      <trkpt lat="43.65888" lon="7.11628">
        <ele>46.200000762939</ele>
        <time>2011-04-05T10:59:37.000Z</time>
      </trkpt>
      <trkpt lat="43.65881" lon="7.11646">
        <ele>44.200000762939</ele>
        <time>2011-04-05T10:59:42.000Z</time>
      </trkpt>
      <trkpt lat="43.65878" lon="7.11653">
        <ele>43.400001525879</ele>
        <time>2011-04-05T10:59:44.000Z</time>
      </trkpt>
      <trkpt lat="43.65868" lon="7.11671">
        <ele>41.799999237061</ele>
        <time>2011-04-05T10:59:51.000Z</time>
      </trkpt>
      <trkpt lat="43.65864" lon="7.11674">
        <ele>41.400001525879</ele>
        <time>2011-04-05T10:59:53.000Z</time>
      </trkpt>
      <trkpt lat="43.65855" lon="7.11692">
        <ele>39.200000762939</ele>
        <time>2011-04-05T10:59:59.000Z</time>
      </trkpt>
      <trkpt lat="43.6585" lon="7.11699">
        <ele>38.599998474121</ele>
        <time>2011-04-05T11:00:02.000Z</time>
      </trkpt>
      <trkpt lat="43.65844" lon="7.11708">
        <ele>38</ele>
        <time>2011-04-05T11:00:06.000Z</time>
      </trkpt>
      <trkpt lat="43.6584" lon="7.11715">
        <ele>37.599998474121</ele>
        <time>2011-04-05T11:00:11.000Z</time>
      </trkpt>
      <trkpt lat="43.6584" lon="7.11714">
        <ele>37.799999237061</ele>
        <time>2011-04-05T11:00:28.000Z</time>
      </trkpt>
      <trkpt lat="43.65835" lon="7.11716">
        <ele>38</ele>
        <time>2011-04-05T11:00:32.000Z</time>
      </trkpt>
      <trkpt lat="43.65819" lon="7.11719">
        <ele>36</ele>
        <time>2011-04-05T11:00:37.000Z</time>
      </trkpt>
      <trkpt lat="43.65806" lon="7.11721">
        <ele>34</ele>
        <time>2011-04-05T11:00:42.000Z</time>
      </trkpt>
      <trkpt lat="43.65797" lon="7.11729">
        <ele>33</ele>
        <time>2011-04-05T11:00:46.000Z</time>
      </trkpt>
      <trkpt lat="43.65784" lon="7.11739">
        <ele>31.60000038147</ele>
        <time>2011-04-05T11:00:52.000Z</time>
      </trkpt>
      <trkpt lat="43.65782" lon="7.11749">
        <ele>31.799999237061</ele>
        <time>2011-04-05T11:00:55.000Z</time>
      </trkpt>
      <trkpt lat="43.65773" lon="7.11761">
        <ele>30.200000762939</ele>
        <time>2011-04-05T11:01:00.000Z</time>
      </trkpt>
      <trkpt lat="43.65772" lon="7.11766">
        <ele>29.60000038147</ele>
        <time>2011-04-05T11:01:02.000Z</time>
      </trkpt>
      <trkpt lat="43.65772" lon="7.11773">
        <ele>29</ele>
        <time>2011-04-05T11:01:04.000Z</time>
      </trkpt>
      <trkpt lat="43.65764" lon="7.1179">
        <ele>27.39999961853</ele>
        <time>2011-04-05T11:01:11.000Z</time>
      </trkpt>
      <trkpt lat="43.65762" lon="7.11794">
        <ele>27</ele>
        <time>2011-04-05T11:01:13.000Z</time>
      </trkpt>
      <trkpt lat="43.65761" lon="7.11806">
        <ele>26.200000762939</ele>
        <time>2011-04-05T11:01:18.000Z</time>
      </trkpt>
      <trkpt lat="43.65757" lon="7.11811">
        <ele>26</ele>
        <time>2011-04-05T11:01:22.000Z</time>
      </trkpt>
      <trkpt lat="43.65752" lon="7.11817">
        <ele>25.799999237061</ele>
        <time>2011-04-05T11:01:27.000Z</time>
      </trkpt>
      <trkpt lat="43.65751" lon="7.11828">
        <ele>25.200000762939</ele>
        <time>2011-04-05T11:01:31.000Z</time>
      </trkpt>
      <trkpt lat="43.65751" lon="7.11839">
        <ele>24.200000762939</ele>
        <time>2011-04-05T11:01:35.000Z</time>
      </trkpt>
      <trkpt lat="43.65749" lon="7.11849">
        <ele>23.39999961853</ele>
        <time>2011-04-05T11:01:40.000Z</time>
      </trkpt>
      <trkpt lat="43.65747" lon="7.1185">
        <ele>23.200000762939</ele>
        <time>2011-04-05T11:01:44.000Z</time>
      </trkpt>
      <trkpt lat="43.6574" lon="7.11856">
        <ele>22</ele>
        <time>2011-04-05T11:01:50.000Z</time>
      </trkpt>
      <trkpt lat="43.65736" lon="7.11859">
        <ele>21.60000038147</ele>
        <time>2011-04-05T11:01:54.000Z</time>
      </trkpt>
      <trkpt lat="43.65734" lon="7.1186">
        <ele>21.39999961853</ele>
        <time>2011-04-05T11:01:56.000Z</time>
      </trkpt>
      <trkpt lat="43.65721" lon="7.11865">
        <ele>20.200000762939</ele>
        <time>2011-04-05T11:02:01.000Z</time>
      </trkpt>
      <trkpt lat="43.65714" lon="7.11868">
        <ele>19.60000038147</ele>
        <time>2011-04-05T11:02:03.000Z</time>
      </trkpt>
      <trkpt lat="43.65708" lon="7.11884">
        <ele>18.39999961853</ele>
        <time>2011-04-05T11:02:09.000Z</time>
      </trkpt>
      <trkpt lat="43.65706" lon="7.11908">
        <ele>16.799999237061</ele>
        <time>2011-04-05T11:02:14.000Z</time>
      </trkpt>
      <trkpt lat="43.65703" lon="7.11932">
        <ele>16.39999961853</ele>
        <time>2011-04-05T11:02:19.000Z</time>
      </trkpt>
      <trkpt lat="43.65697" lon="7.11967">
        <ele>16.39999961853</ele>
        <time>2011-04-05T11:02:26.000Z</time>
      </trkpt>
      <trkpt lat="43.65694" lon="7.11991">
        <ele>16.200000762939</ele>
        <time>2011-04-05T11:02:31.000Z</time>
      </trkpt>
      <trkpt lat="43.65695" lon="7.12014">
        <ele>16</ele>
        <time>2011-04-05T11:02:36.000Z</time>
      </trkpt>
      <trkpt lat="43.657" lon="7.12028">
        <ele>16</ele>
        <time>2011-04-05T11:02:40.000Z</time>
      </trkpt>
      <trkpt lat="43.65716" lon="7.12025">
        <ele>16.799999237061</ele>
        <time>2011-04-05T11:02:45.000Z</time>
      </trkpt>
      <trkpt lat="43.65731" lon="7.12031">
        <ele>17.39999961853</ele>
        <time>2011-04-05T11:02:50.000Z</time>
      </trkpt>
      <trkpt lat="43.65751" lon="7.12034">
        <ele>18</ele>
        <time>2011-04-05T11:02:56.000Z</time>
      </trkpt>
      <trkpt lat="43.65754" lon="7.12033">
        <ele>17.799999237061</ele>
        <time>2011-04-05T11:02:57.000Z</time>
      </trkpt>
      <trkpt lat="43.65763" lon="7.1202">
        <ele>17.60000038147</ele>
        <time>2011-04-05T11:03:01.000Z</time>
      </trkpt>
      <trkpt lat="43.65768" lon="7.12003">
        <ele>17.799999237061</ele>
        <time>2011-04-05T11:03:05.000Z</time>
      </trkpt>
    </trkseg>
  </trk>
</gpx>